<?xml version="1.0" encoding="UTF-8" standalone="no" ?>
<gpx xmlns="http://www.topografix.com/GPX/1/1" xmlns:xsi="http://www.w3.org/2001/XMLSchema-instance" xsi:schemaLocation="http://www.topografix.com/GPX/1/1 http://www.topografix.com/GPX/1/1/gpx.xsd" version="1.1" creator="VisuGPX - https://www.visugpx.com">
  <metadata>
    <name>F38290 lac de Crop col mine de Fer Jean Collet JPT</name>
    <desc><![CDATA[File with points/tracks from Locus Map/3.39.2]]></desc>
  </metadata>
  <trk>
    <name><![CDATA[F38290 lac de Crop col mine de Fer Jean Collet JPT]]></name>
    <trkseg>
      <trkpt lat="45.22731" lon="5.99364">
        <ele>1298.62</ele>
        <time>2019-08-09T07:59:42.000Z</time>
      </trkpt>
      <trkpt lat="45.22723" lon="5.99375">
        <ele>1300.11</ele>
        <time>2019-08-09T07:59:53.000Z</time>
      </trkpt>
      <trkpt lat="45.22714" lon="5.99383">
        <ele>1299.99</ele>
        <time>2019-08-09T08:00:03.000Z</time>
      </trkpt>
      <trkpt lat="45.22705" lon="5.9939">
        <ele>1299.06</ele>
        <time>2019-08-09T08:00:26.000Z</time>
      </trkpt>
      <trkpt lat="45.22695" lon="5.99396">
        <ele>1298.39</ele>
        <time>2019-08-09T08:00:36.000Z</time>
      </trkpt>
      <trkpt lat="45.22685" lon="5.99402">
        <ele>1297.99</ele>
        <time>2019-08-09T08:00:46.000Z</time>
      </trkpt>
      <trkpt lat="45.22676" lon="5.99408">
        <ele>1297.99</ele>
        <time>2019-08-09T08:00:59.000Z</time>
      </trkpt>
      <trkpt lat="45.22667" lon="5.99405">
        <ele>1294.3</ele>
        <time>2019-08-09T08:01:17.000Z</time>
      </trkpt>
      <trkpt lat="45.22658" lon="5.99399">
        <ele>1289.24</ele>
        <time>2019-08-09T08:01:32.000Z</time>
      </trkpt>
      <trkpt lat="45.22649" lon="5.99395">
        <ele>1285.67</ele>
        <time>2019-08-09T08:01:42.000Z</time>
      </trkpt>
      <trkpt lat="45.22638" lon="5.99391">
        <ele>1283.12</ele>
        <time>2019-08-09T08:01:52.000Z</time>
      </trkpt>
      <trkpt lat="45.22629" lon="5.99386">
        <ele>1280.63</ele>
        <time>2019-08-09T08:02:02.000Z</time>
      </trkpt>
      <trkpt lat="45.22619" lon="5.99382">
        <ele>1278.88</ele>
        <time>2019-08-09T08:02:12.000Z</time>
      </trkpt>
      <trkpt lat="45.22606" lon="5.9938">
        <ele>1278.27</ele>
        <time>2019-08-09T08:02:22.000Z</time>
      </trkpt>
      <trkpt lat="45.22596" lon="5.99376">
        <ele>1276.76</ele>
        <time>2019-08-09T08:02:33.000Z</time>
      </trkpt>
      <trkpt lat="45.22586" lon="5.99375">
        <ele>1276.44</ele>
        <time>2019-08-09T08:02:46.000Z</time>
      </trkpt>
      <trkpt lat="45.22577" lon="5.99372">
        <ele>1275.05</ele>
        <time>2019-08-09T08:02:57.000Z</time>
      </trkpt>
      <trkpt lat="45.22565" lon="5.99371">
        <ele>1274.87</ele>
        <time>2019-08-09T08:03:07.000Z</time>
      </trkpt>
      <trkpt lat="45.22554" lon="5.99373">
        <ele>1275.99</ele>
        <time>2019-08-09T08:03:17.000Z</time>
      </trkpt>
      <trkpt lat="45.22541" lon="5.99375">
        <ele>1277.96</ele>
        <time>2019-08-09T08:03:27.000Z</time>
      </trkpt>
      <trkpt lat="45.2253" lon="5.99382">
        <ele>1281.85</ele>
        <time>2019-08-09T08:03:37.000Z</time>
      </trkpt>
      <trkpt lat="45.22521" lon="5.99387">
        <ele>1284.65</ele>
        <time>2019-08-09T08:03:49.000Z</time>
      </trkpt>
      <trkpt lat="45.22513" lon="5.99396">
        <ele>1288.78</ele>
        <time>2019-08-09T08:03:59.000Z</time>
      </trkpt>
      <trkpt lat="45.22508" lon="5.9941">
        <ele>1294.34</ele>
        <time>2019-08-09T08:04:09.000Z</time>
      </trkpt>
      <trkpt lat="45.22512" lon="5.9943">
        <ele>1300.42</ele>
        <time>2019-08-09T08:04:19.000Z</time>
      </trkpt>
      <trkpt lat="45.22511" lon="5.99444">
        <ele>1301.6</ele>
        <time>2019-08-09T08:04:29.000Z</time>
      </trkpt>
      <trkpt lat="45.22505" lon="5.99461">
        <ele>1300.7</ele>
        <time>2019-08-09T08:04:39.000Z</time>
      </trkpt>
      <trkpt lat="45.225" lon="5.99473">
        <ele>1299.27</ele>
        <time>2019-08-09T08:04:49.000Z</time>
      </trkpt>
      <trkpt lat="45.22496" lon="5.99486">
        <ele>1297.99</ele>
        <time>2019-08-09T08:04:59.000Z</time>
      </trkpt>
      <trkpt lat="45.22491" lon="5.99498">
        <ele>1297.14</ele>
        <time>2019-08-09T08:05:10.000Z</time>
      </trkpt>
      <trkpt lat="45.22486" lon="5.99516">
        <ele>1297.42</ele>
        <time>2019-08-09T08:05:20.000Z</time>
      </trkpt>
      <trkpt lat="45.22488" lon="5.99529">
        <ele>1300.21</ele>
        <time>2019-08-09T08:05:33.000Z</time>
      </trkpt>
      <trkpt lat="45.22479" lon="5.99534">
        <ele>1297.51</ele>
        <time>2019-08-09T08:05:50.000Z</time>
      </trkpt>
      <trkpt lat="45.22473" lon="5.99546">
        <ele>1296.53</ele>
        <time>2019-08-09T08:06:00.000Z</time>
      </trkpt>
      <trkpt lat="45.22467" lon="5.99564">
        <ele>1296.67</ele>
        <time>2019-08-09T08:06:10.000Z</time>
      </trkpt>
      <trkpt lat="45.22466" lon="5.99582">
        <ele>1298.47</ele>
        <time>2019-08-09T08:06:20.000Z</time>
      </trkpt>
      <trkpt lat="45.22462" lon="5.99594">
        <ele>1298.58</ele>
        <time>2019-08-09T08:06:33.000Z</time>
      </trkpt>
      <trkpt lat="45.22458" lon="5.99607">
        <ele>1298.28</ele>
        <time>2019-08-09T08:06:43.000Z</time>
      </trkpt>
      <trkpt lat="45.22452" lon="5.99619">
        <ele>1297.25</ele>
        <time>2019-08-09T08:06:54.000Z</time>
      </trkpt>
      <trkpt lat="45.22443" lon="5.99633">
        <ele>1295.46</ele>
        <time>2019-08-09T08:07:04.000Z</time>
      </trkpt>
      <trkpt lat="45.22426" lon="5.99645">
        <ele>1291.86</ele>
        <time>2019-08-09T08:07:14.000Z</time>
      </trkpt>
      <trkpt lat="45.22412" lon="5.99649">
        <ele>1290</ele>
        <time>2019-08-09T08:07:24.000Z</time>
      </trkpt>
      <trkpt lat="45.224" lon="5.99647">
        <ele>1289.08</ele>
        <time>2019-08-09T08:07:34.000Z</time>
      </trkpt>
      <trkpt lat="45.2239" lon="5.99644">
        <ele>1288.84</ele>
        <time>2019-08-09T08:07:51.000Z</time>
      </trkpt>
      <trkpt lat="45.22383" lon="5.99635">
        <ele>1288.59</ele>
        <time>2019-08-09T08:08:04.000Z</time>
      </trkpt>
      <trkpt lat="45.22376" lon="5.99627">
        <ele>1288.99</ele>
        <time>2019-08-09T08:08:14.000Z</time>
      </trkpt>
      <trkpt lat="45.2237" lon="5.99616">
        <ele>1289.58</ele>
        <time>2019-08-09T08:08:25.000Z</time>
      </trkpt>
      <trkpt lat="45.22363" lon="5.99607">
        <ele>1290.95</ele>
        <time>2019-08-09T08:08:36.000Z</time>
      </trkpt>
      <trkpt lat="45.22355" lon="5.996">
        <ele>1292.86</ele>
        <time>2019-08-09T08:08:47.000Z</time>
      </trkpt>
      <trkpt lat="45.22346" lon="5.99593">
        <ele>1295.05</ele>
        <time>2019-08-09T08:08:59.000Z</time>
      </trkpt>
      <trkpt lat="45.22336" lon="5.9959">
        <ele>1297.34</ele>
        <time>2019-08-09T08:09:09.000Z</time>
      </trkpt>
      <trkpt lat="45.22331" lon="5.99577">
        <ele>1298.47</ele>
        <time>2019-08-09T08:09:31.000Z</time>
      </trkpt>
      <trkpt lat="45.22323" lon="5.99568">
        <ele>1300.28</ele>
        <time>2019-08-09T08:09:44.000Z</time>
      </trkpt>
      <trkpt lat="45.22314" lon="5.99565">
        <ele>1302.12</ele>
        <time>2019-08-09T08:09:57.000Z</time>
      </trkpt>
      <trkpt lat="45.22304" lon="5.99566">
        <ele>1303.8</ele>
        <time>2019-08-09T08:10:21.000Z</time>
      </trkpt>
      <trkpt lat="45.22295" lon="5.99569">
        <ele>1305.41</ele>
        <time>2019-08-09T08:10:33.000Z</time>
      </trkpt>
      <trkpt lat="45.22286" lon="5.99572">
        <ele>1307.25</ele>
        <time>2019-08-09T08:10:48.000Z</time>
      </trkpt>
      <trkpt lat="45.22277" lon="5.99576">
        <ele>1309.35</ele>
        <time>2019-08-09T08:11:13.000Z</time>
      </trkpt>
      <trkpt lat="45.2227" lon="5.99585">
        <ele>1311.67</ele>
        <time>2019-08-09T08:11:28.000Z</time>
      </trkpt>
      <trkpt lat="45.22266" lon="5.99597">
        <ele>1313.74</ele>
        <time>2019-08-09T08:11:47.000Z</time>
      </trkpt>
      <trkpt lat="45.22263" lon="5.9961">
        <ele>1315.46</ele>
        <time>2019-08-09T08:12:01.000Z</time>
      </trkpt>
      <trkpt lat="45.22256" lon="5.99617">
        <ele>1318.34</ele>
        <time>2019-08-09T08:12:21.000Z</time>
      </trkpt>
      <trkpt lat="45.2225" lon="5.99627">
        <ele>1321.28</ele>
        <time>2019-08-09T08:12:44.000Z</time>
      </trkpt>
      <trkpt lat="45.22245" lon="5.99639">
        <ele>1324.44</ele>
        <time>2019-08-09T08:12:59.000Z</time>
      </trkpt>
      <trkpt lat="45.22236" lon="5.99638">
        <ele>1327.34</ele>
        <time>2019-08-09T08:13:47.000Z</time>
      </trkpt>
      <trkpt lat="45.22227" lon="5.99633">
        <ele>1329.25</ele>
        <time>2019-08-09T08:14:13.000Z</time>
      </trkpt>
      <trkpt lat="45.22218" lon="5.9963">
        <ele>1331.69</ele>
        <time>2019-08-09T08:14:30.000Z</time>
      </trkpt>
      <trkpt lat="45.22209" lon="5.99628">
        <ele>1334.14</ele>
        <time>2019-08-09T08:14:58.000Z</time>
      </trkpt>
      <trkpt lat="45.222" lon="5.99625">
        <ele>1336.54</ele>
        <time>2019-08-09T08:15:21.000Z</time>
      </trkpt>
      <trkpt lat="45.22187" lon="5.99626">
        <ele>1340.72</ele>
        <time>2019-08-09T08:15:38.000Z</time>
      </trkpt>
      <trkpt lat="45.22179" lon="5.99623">
        <ele>1342.67</ele>
        <time>2019-08-09T08:15:57.000Z</time>
      </trkpt>
      <trkpt lat="45.2217" lon="5.99628">
        <ele>1346.79</ele>
        <time>2019-08-09T08:16:21.000Z</time>
      </trkpt>
      <trkpt lat="45.22164" lon="5.99637">
        <ele>1351.61</ele>
        <time>2019-08-09T08:16:37.000Z</time>
      </trkpt>
      <trkpt lat="45.22159" lon="5.99649">
        <ele>1356.46</ele>
        <time>2019-08-09T08:17:29.000Z</time>
      </trkpt>
      <trkpt lat="45.2215" lon="5.99646">
        <ele>1358.95</ele>
        <time>2019-08-09T08:18:16.000Z</time>
      </trkpt>
      <trkpt lat="45.2214" lon="5.99643">
        <ele>1360.89</ele>
        <time>2019-08-09T08:18:38.000Z</time>
      </trkpt>
      <trkpt lat="45.22132" lon="5.99637">
        <ele>1362.45</ele>
        <time>2019-08-09T08:18:53.000Z</time>
      </trkpt>
      <trkpt lat="45.22121" lon="5.99637">
        <ele>1365.97</ele>
        <time>2019-08-09T08:19:03.000Z</time>
      </trkpt>
      <trkpt lat="45.22112" lon="5.99633">
        <ele>1368.37</ele>
        <time>2019-08-09T08:19:24.000Z</time>
      </trkpt>
      <trkpt lat="45.22103" lon="5.99628">
        <ele>1370.53</ele>
        <time>2019-08-09T08:19:52.000Z</time>
      </trkpt>
      <trkpt lat="45.22097" lon="5.99618">
        <ele>1371.25</ele>
        <time>2019-08-09T08:20:05.000Z</time>
      </trkpt>
      <trkpt lat="45.22093" lon="5.99606">
        <ele>1370.53</ele>
        <time>2019-08-09T08:20:15.000Z</time>
      </trkpt>
      <trkpt lat="45.22086" lon="5.99594">
        <ele>1370.57</ele>
        <time>2019-08-09T08:20:25.000Z</time>
      </trkpt>
      <trkpt lat="45.22077" lon="5.99585">
        <ele>1371.35</ele>
        <time>2019-08-09T08:20:35.000Z</time>
      </trkpt>
      <trkpt lat="45.22068" lon="5.99581">
        <ele>1373.32</ele>
        <time>2019-08-09T08:20:45.000Z</time>
      </trkpt>
      <trkpt lat="45.22059" lon="5.9958">
        <ele>1375.64</ele>
        <time>2019-08-09T08:20:59.000Z</time>
      </trkpt>
      <trkpt lat="45.2205" lon="5.99577">
        <ele>1377.6</ele>
        <time>2019-08-09T08:21:10.000Z</time>
      </trkpt>
      <trkpt lat="45.22041" lon="5.99575">
        <ele>1379.62</ele>
        <time>2019-08-09T08:21:26.000Z</time>
      </trkpt>
      <trkpt lat="45.22032" lon="5.99574">
        <ele>1381.85</ele>
        <time>2019-08-09T08:21:37.000Z</time>
      </trkpt>
      <trkpt lat="45.22023" lon="5.99569">
        <ele>1382.65</ele>
        <time>2019-08-09T08:21:51.000Z</time>
      </trkpt>
      <trkpt lat="45.22014" lon="5.99567">
        <ele>1384.68</ele>
        <time>2019-08-09T08:22:05.000Z</time>
      </trkpt>
      <trkpt lat="45.22007" lon="5.99559">
        <ele>1384.06</ele>
        <time>2019-08-09T08:22:19.000Z</time>
      </trkpt>
      <trkpt lat="45.21997" lon="5.9956">
        <ele>1387.37</ele>
        <time>2019-08-09T08:22:30.000Z</time>
      </trkpt>
      <trkpt lat="45.21988" lon="5.99559">
        <ele>1390.03</ele>
        <time>2019-08-09T08:22:42.000Z</time>
      </trkpt>
      <trkpt lat="45.21981" lon="5.9955">
        <ele>1389.3</ele>
        <time>2019-08-09T08:22:53.000Z</time>
      </trkpt>
      <trkpt lat="45.21973" lon="5.99543">
        <ele>1389.17</ele>
        <time>2019-08-09T08:23:05.000Z</time>
      </trkpt>
      <trkpt lat="45.21964" lon="5.99528">
        <ele>1385.49</ele>
        <time>2019-08-09T08:23:15.000Z</time>
      </trkpt>
      <trkpt lat="45.21958" lon="5.99514">
        <ele>1381.79</ele>
        <time>2019-08-09T08:23:25.000Z</time>
      </trkpt>
      <trkpt lat="45.21949" lon="5.99504">
        <ele>1380.07</ele>
        <time>2019-08-09T08:23:35.000Z</time>
      </trkpt>
      <trkpt lat="45.2194" lon="5.99492">
        <ele>1379.05</ele>
        <time>2019-08-09T08:23:45.000Z</time>
      </trkpt>
      <trkpt lat="45.21929" lon="5.99482">
        <ele>1379.44</ele>
        <time>2019-08-09T08:23:55.000Z</time>
      </trkpt>
      <trkpt lat="45.2192" lon="5.99475">
        <ele>1380.99</ele>
        <time>2019-08-09T08:24:05.000Z</time>
      </trkpt>
      <trkpt lat="45.21912" lon="5.99464">
        <ele>1382.19</ele>
        <time>2019-08-09T08:24:15.000Z</time>
      </trkpt>
      <trkpt lat="45.21907" lon="5.99451">
        <ele>1381.98</ele>
        <time>2019-08-09T08:24:25.000Z</time>
      </trkpt>
      <trkpt lat="45.21904" lon="5.99439">
        <ele>1381.66</ele>
        <time>2019-08-09T08:24:35.000Z</time>
      </trkpt>
      <trkpt lat="45.21903" lon="5.99426">
        <ele>1379.75</ele>
        <time>2019-08-09T08:24:46.000Z</time>
      </trkpt>
      <trkpt lat="45.21903" lon="5.99413">
        <ele>1377.66</ele>
        <time>2019-08-09T08:24:58.000Z</time>
      </trkpt>
      <trkpt lat="45.21897" lon="5.99401">
        <ele>1377.99</ele>
        <time>2019-08-09T08:25:10.000Z</time>
      </trkpt>
      <trkpt lat="45.21892" lon="5.99389">
        <ele>1377.97</ele>
        <time>2019-08-09T08:25:20.000Z</time>
      </trkpt>
      <trkpt lat="45.21885" lon="5.99381">
        <ele>1380.1</ele>
        <time>2019-08-09T08:25:30.000Z</time>
      </trkpt>
      <trkpt lat="45.21877" lon="5.99375">
        <ele>1383.14</ele>
        <time>2019-08-09T08:25:40.000Z</time>
      </trkpt>
      <trkpt lat="45.21871" lon="5.99364">
        <ele>1384.42</ele>
        <time>2019-08-09T08:25:51.000Z</time>
      </trkpt>
      <trkpt lat="45.21872" lon="5.99351">
        <ele>1382.19</ele>
        <time>2019-08-09T08:26:03.000Z</time>
      </trkpt>
      <trkpt lat="45.2187" lon="5.99338">
        <ele>1381.39</ele>
        <time>2019-08-09T08:26:14.000Z</time>
      </trkpt>
      <trkpt lat="45.21872" lon="5.99324">
        <ele>1378.87</ele>
        <time>2019-08-09T08:26:25.000Z</time>
      </trkpt>
      <trkpt lat="45.21869" lon="5.99311">
        <ele>1379.14</ele>
        <time>2019-08-09T08:26:35.000Z</time>
      </trkpt>
      <trkpt lat="45.21863" lon="5.99297">
        <ele>1381.55</ele>
        <time>2019-08-09T08:26:45.000Z</time>
      </trkpt>
      <trkpt lat="45.21858" lon="5.99284">
        <ele>1383.27</ele>
        <time>2019-08-09T08:26:55.000Z</time>
      </trkpt>
      <trkpt lat="45.21852" lon="5.9927">
        <ele>1386.14</ele>
        <time>2019-08-09T08:27:05.000Z</time>
      </trkpt>
      <trkpt lat="45.21848" lon="5.99258">
        <ele>1387.62</ele>
        <time>2019-08-09T08:27:15.000Z</time>
      </trkpt>
      <trkpt lat="45.21844" lon="5.99245">
        <ele>1388.77</ele>
        <time>2019-08-09T08:27:25.000Z</time>
      </trkpt>
      <trkpt lat="45.21839" lon="5.99234">
        <ele>1390.25</ele>
        <time>2019-08-09T08:27:35.000Z</time>
      </trkpt>
      <trkpt lat="45.21833" lon="5.99221">
        <ele>1392.04</ele>
        <time>2019-08-09T08:27:45.000Z</time>
      </trkpt>
      <trkpt lat="45.21827" lon="5.9921">
        <ele>1393.11</ele>
        <time>2019-08-09T08:27:57.000Z</time>
      </trkpt>
      <trkpt lat="45.21827" lon="5.99195">
        <ele>1391.89</ele>
        <time>2019-08-09T08:28:07.000Z</time>
      </trkpt>
      <trkpt lat="45.21823" lon="5.99182">
        <ele>1392.79</ele>
        <time>2019-08-09T08:28:18.000Z</time>
      </trkpt>
      <trkpt lat="45.21818" lon="5.99167">
        <ele>1394.89</ele>
        <time>2019-08-09T08:28:28.000Z</time>
      </trkpt>
      <trkpt lat="45.21812" lon="5.99155">
        <ele>1397.61</ele>
        <time>2019-08-09T08:28:40.000Z</time>
      </trkpt>
      <trkpt lat="45.21804" lon="5.9914">
        <ele>1401.32</ele>
        <time>2019-08-09T08:28:50.000Z</time>
      </trkpt>
      <trkpt lat="45.21795" lon="5.99136">
        <ele>1403.37</ele>
        <time>2019-08-09T08:29:00.000Z</time>
      </trkpt>
      <trkpt lat="45.21787" lon="5.99129">
        <ele>1405.02</ele>
        <time>2019-08-09T08:29:11.000Z</time>
      </trkpt>
      <trkpt lat="45.21778" lon="5.99124">
        <ele>1406.22</ele>
        <time>2019-08-09T08:29:22.000Z</time>
      </trkpt>
      <trkpt lat="45.21774" lon="5.99112">
        <ele>1407</ele>
        <time>2019-08-09T08:29:36.000Z</time>
      </trkpt>
      <trkpt lat="45.21772" lon="5.99099">
        <ele>1407.91</ele>
        <time>2019-08-09T08:29:46.000Z</time>
      </trkpt>
      <trkpt lat="45.21765" lon="5.9909">
        <ele>1408.97</ele>
        <time>2019-08-09T08:29:59.000Z</time>
      </trkpt>
      <trkpt lat="45.21764" lon="5.99077">
        <ele>1410.91</ele>
        <time>2019-08-09T08:30:17.000Z</time>
      </trkpt>
      <trkpt lat="45.21773" lon="5.9907">
        <ele>1412.7</ele>
        <time>2019-08-09T08:30:36.000Z</time>
      </trkpt>
      <trkpt lat="45.21778" lon="5.99058">
        <ele>1416.72</ele>
        <time>2019-08-09T08:30:46.000Z</time>
      </trkpt>
      <trkpt lat="45.21776" lon="5.99045">
        <ele>1420.91</ele>
        <time>2019-08-09T08:31:21.000Z</time>
      </trkpt>
      <trkpt lat="45.2177" lon="5.99035">
        <ele>1423.55</ele>
        <time>2019-08-09T08:31:38.000Z</time>
      </trkpt>
      <trkpt lat="45.21764" lon="5.99024">
        <ele>1426.33</ele>
        <time>2019-08-09T08:31:56.000Z</time>
      </trkpt>
      <trkpt lat="45.21755" lon="5.99018">
        <ele>1427.34</ele>
        <time>2019-08-09T08:32:08.000Z</time>
      </trkpt>
      <trkpt lat="45.21747" lon="5.99013">
        <ele>1428.48</ele>
        <time>2019-08-09T08:32:21.000Z</time>
      </trkpt>
      <trkpt lat="45.21739" lon="5.99006">
        <ele>1429.93</ele>
        <time>2019-08-09T08:32:31.000Z</time>
      </trkpt>
      <trkpt lat="45.2173" lon="5.99">
        <ele>1430.61</ele>
        <time>2019-08-09T08:32:41.000Z</time>
      </trkpt>
      <trkpt lat="45.2172" lon="5.98997">
        <ele>1430.18</ele>
        <time>2019-08-09T08:32:51.000Z</time>
      </trkpt>
      <trkpt lat="45.21712" lon="5.98991">
        <ele>1430.64</ele>
        <time>2019-08-09T08:33:02.000Z</time>
      </trkpt>
      <trkpt lat="45.21706" lon="5.98981">
        <ele>1431.94</ele>
        <time>2019-08-09T08:33:14.000Z</time>
      </trkpt>
      <trkpt lat="45.21697" lon="5.98973">
        <ele>1432.13</ele>
        <time>2019-08-09T08:33:29.000Z</time>
      </trkpt>
      <trkpt lat="45.21689" lon="5.98968">
        <ele>1431.87</ele>
        <time>2019-08-09T08:33:39.000Z</time>
      </trkpt>
      <trkpt lat="45.21685" lon="5.98956">
        <ele>1433.68</ele>
        <time>2019-08-09T08:33:52.000Z</time>
      </trkpt>
      <trkpt lat="45.21681" lon="5.98945">
        <ele>1435.61</ele>
        <time>2019-08-09T08:34:11.000Z</time>
      </trkpt>
      <trkpt lat="45.21673" lon="5.98938">
        <ele>1436</ele>
        <time>2019-08-09T08:34:24.000Z</time>
      </trkpt>
      <trkpt lat="45.21665" lon="5.98931">
        <ele>1437.41</ele>
        <time>2019-08-09T08:34:41.000Z</time>
      </trkpt>
      <trkpt lat="45.21657" lon="5.98924">
        <ele>1439.59</ele>
        <time>2019-08-09T08:35:01.000Z</time>
      </trkpt>
      <trkpt lat="45.21651" lon="5.98913">
        <ele>1443.07</ele>
        <time>2019-08-09T08:35:19.000Z</time>
      </trkpt>
      <trkpt lat="45.21649" lon="5.98899">
        <ele>1448.44</ele>
        <time>2019-08-09T08:35:40.000Z</time>
      </trkpt>
      <trkpt lat="45.21641" lon="5.98891">
        <ele>1451.74</ele>
        <time>2019-08-09T08:35:52.000Z</time>
      </trkpt>
      <trkpt lat="45.21633" lon="5.98885">
        <ele>1453.83</ele>
        <time>2019-08-09T08:36:05.000Z</time>
      </trkpt>
      <trkpt lat="45.21627" lon="5.98873">
        <ele>1457.57</ele>
        <time>2019-08-09T08:36:24.000Z</time>
      </trkpt>
      <trkpt lat="45.21627" lon="5.98861">
        <ele>1462.45</ele>
        <time>2019-08-09T08:36:47.000Z</time>
      </trkpt>
      <trkpt lat="45.21621" lon="5.9885">
        <ele>1464.06</ele>
        <time>2019-08-09T08:37:03.000Z</time>
      </trkpt>
      <trkpt lat="45.21617" lon="5.98838">
        <ele>1466.62</ele>
        <time>2019-08-09T08:37:22.000Z</time>
      </trkpt>
      <trkpt lat="45.21613" lon="5.98826">
        <ele>1467.85</ele>
        <time>2019-08-09T08:37:42.000Z</time>
      </trkpt>
      <trkpt lat="45.21609" lon="5.98814">
        <ele>1469</ele>
        <time>2019-08-09T08:38:02.000Z</time>
      </trkpt>
      <trkpt lat="45.21603" lon="5.98804">
        <ele>1468.95</ele>
        <time>2019-08-09T08:38:25.000Z</time>
      </trkpt>
      <trkpt lat="45.21599" lon="5.98792">
        <ele>1469.92</ele>
        <time>2019-08-09T08:38:54.000Z</time>
      </trkpt>
      <trkpt lat="45.21591" lon="5.98785">
        <ele>1469.04</ele>
        <time>2019-08-09T08:39:07.000Z</time>
      </trkpt>
      <trkpt lat="45.21584" lon="5.98776">
        <ele>1469.84</ele>
        <time>2019-08-09T08:39:26.000Z</time>
      </trkpt>
      <trkpt lat="45.21579" lon="5.98765">
        <ele>1472.04</ele>
        <time>2019-08-09T08:39:49.000Z</time>
      </trkpt>
      <trkpt lat="45.21575" lon="5.98754">
        <ele>1475.25</ele>
        <time>2019-08-09T08:40:44.000Z</time>
      </trkpt>
      <trkpt lat="45.21572" lon="5.98741">
        <ele>1479.36</ele>
        <time>2019-08-09T08:41:04.000Z</time>
      </trkpt>
      <trkpt lat="45.21567" lon="5.98729">
        <ele>1483.89</ele>
        <time>2019-08-09T08:41:20.000Z</time>
      </trkpt>
      <trkpt lat="45.21558" lon="5.98724">
        <ele>1486.27</ele>
        <time>2019-08-09T08:41:34.000Z</time>
      </trkpt>
      <trkpt lat="45.21549" lon="5.98723">
        <ele>1487.44</ele>
        <time>2019-08-09T08:42:34.000Z</time>
      </trkpt>
      <trkpt lat="45.21546" lon="5.9871">
        <ele>1492.58</ele>
        <time>2019-08-09T08:43:22.000Z</time>
      </trkpt>
      <trkpt lat="45.21541" lon="5.98699">
        <ele>1496.88</ele>
        <time>2019-08-09T08:43:54.000Z</time>
      </trkpt>
      <trkpt lat="45.21546" lon="5.98688">
        <ele>1501.06</ele>
        <time>2019-08-09T08:44:21.000Z</time>
      </trkpt>
      <trkpt lat="45.21555" lon="5.98691">
        <ele>1500.15</ele>
        <time>2019-08-09T08:44:47.000Z</time>
      </trkpt>
      <trkpt lat="45.21563" lon="5.98698">
        <ele>1497.46</ele>
        <time>2019-08-09T08:45:10.000Z</time>
      </trkpt>
      <trkpt lat="45.21572" lon="5.98697">
        <ele>1499.17</ele>
        <time>2019-08-09T08:45:24.000Z</time>
      </trkpt>
      <trkpt lat="45.21582" lon="5.98697">
        <ele>1500.25</ele>
        <time>2019-08-09T08:45:41.000Z</time>
      </trkpt>
      <trkpt lat="45.21589" lon="5.98706">
        <ele>1497.41</ele>
        <time>2019-08-09T08:45:55.000Z</time>
      </trkpt>
      <trkpt lat="45.216" lon="5.98705">
        <ele>1500.99</ele>
        <time>2019-08-09T08:46:17.000Z</time>
      </trkpt>
      <trkpt lat="45.21609" lon="5.98708">
        <ele>1503.97</ele>
        <time>2019-08-09T08:46:29.000Z</time>
      </trkpt>
      <trkpt lat="45.21619" lon="5.98709">
        <ele>1508.36</ele>
        <time>2019-08-09T08:46:46.000Z</time>
      </trkpt>
      <trkpt lat="45.21628" lon="5.98712">
        <ele>1512.63</ele>
        <time>2019-08-09T08:47:08.000Z</time>
      </trkpt>
      <trkpt lat="45.21638" lon="5.98717">
        <ele>1516.07</ele>
        <time>2019-08-09T08:47:22.000Z</time>
      </trkpt>
      <trkpt lat="45.21647" lon="5.98714">
        <ele>1521.32</ele>
        <time>2019-08-09T08:47:36.000Z</time>
      </trkpt>
      <trkpt lat="45.21651" lon="5.98701">
        <ele>1525.94</ele>
        <time>2019-08-09T08:47:47.000Z</time>
      </trkpt>
      <trkpt lat="45.21658" lon="5.98691">
        <ele>1529.93</ele>
        <time>2019-08-09T08:48:00.000Z</time>
      </trkpt>
      <trkpt lat="45.21657" lon="5.98678">
        <ele>1532.38</ele>
        <time>2019-08-09T08:48:17.000Z</time>
      </trkpt>
      <trkpt lat="45.21654" lon="5.98664">
        <ele>1534.96</ele>
        <time>2019-08-09T08:48:39.000Z</time>
      </trkpt>
      <trkpt lat="45.21649" lon="5.98653">
        <ele>1536.56</ele>
        <time>2019-08-09T08:48:54.000Z</time>
      </trkpt>
      <trkpt lat="45.21641" lon="5.98646">
        <ele>1536.8</ele>
        <time>2019-08-09T08:49:05.000Z</time>
      </trkpt>
      <trkpt lat="45.2164" lon="5.98633">
        <ele>1540.11</ele>
        <time>2019-08-09T08:49:35.000Z</time>
      </trkpt>
      <trkpt lat="45.21633" lon="5.98623">
        <ele>1541.78</ele>
        <time>2019-08-09T08:49:55.000Z</time>
      </trkpt>
      <trkpt lat="45.2164" lon="5.98615">
        <ele>1545.19</ele>
        <time>2019-08-09T08:51:21.000Z</time>
      </trkpt>
      <trkpt lat="45.21636" lon="5.98604">
        <ele>1547.93</ele>
        <time>2019-08-09T08:54:10.000Z</time>
      </trkpt>
      <trkpt lat="45.21626" lon="5.98606">
        <ele>1546.45</ele>
        <time>2019-08-09T08:55:22.000Z</time>
      </trkpt>
      <trkpt lat="45.21636" lon="5.98602">
        <ele>1548.62</ele>
        <time>2019-08-09T08:58:10.000Z</time>
      </trkpt>
      <trkpt lat="45.21633" lon="5.98589">
        <ele>1552.24</ele>
        <time>2019-08-09T08:59:12.000Z</time>
      </trkpt>
      <trkpt lat="45.2163" lon="5.98576">
        <ele>1555.91</ele>
        <time>2019-08-09T08:59:39.000Z</time>
      </trkpt>
      <trkpt lat="45.21631" lon="5.98563">
        <ele>1559.99</ele>
        <time>2019-08-09T08:59:49.000Z</time>
      </trkpt>
      <trkpt lat="45.21624" lon="5.98556">
        <ele>1561.79</ele>
        <time>2019-08-09T09:00:10.000Z</time>
      </trkpt>
      <trkpt lat="45.21622" lon="5.98542">
        <ele>1565.75</ele>
        <time>2019-08-09T09:00:42.000Z</time>
      </trkpt>
      <trkpt lat="45.21619" lon="5.9853">
        <ele>1569.39</ele>
        <time>2019-08-09T09:00:56.000Z</time>
      </trkpt>
      <trkpt lat="45.21615" lon="5.98519">
        <ele>1573.22</ele>
        <time>2019-08-09T09:01:11.000Z</time>
      </trkpt>
      <trkpt lat="45.21604" lon="5.98514">
        <ele>1574.67</ele>
        <time>2019-08-09T09:01:28.000Z</time>
      </trkpt>
      <trkpt lat="45.21595" lon="5.98509">
        <ele>1576.24</ele>
        <time>2019-08-09T09:01:38.000Z</time>
      </trkpt>
      <trkpt lat="45.21585" lon="5.98504">
        <ele>1577.45</ele>
        <time>2019-08-09T09:01:51.000Z</time>
      </trkpt>
      <trkpt lat="45.21578" lon="5.98496">
        <ele>1580.42</ele>
        <time>2019-08-09T09:02:12.000Z</time>
      </trkpt>
      <trkpt lat="45.2157" lon="5.98488">
        <ele>1582.72</ele>
        <time>2019-08-09T09:02:28.000Z</time>
      </trkpt>
      <trkpt lat="45.21564" lon="5.98479">
        <ele>1586.41</ele>
        <time>2019-08-09T09:02:45.000Z</time>
      </trkpt>
      <trkpt lat="45.21556" lon="5.98473">
        <ele>1587.59</ele>
        <time>2019-08-09T09:03:02.000Z</time>
      </trkpt>
      <trkpt lat="45.2155" lon="5.98462">
        <ele>1591.86</ele>
        <time>2019-08-09T09:03:23.000Z</time>
      </trkpt>
      <trkpt lat="45.21557" lon="5.98472">
        <ele>1588.41</ele>
        <time>2019-08-09T09:04:14.000Z</time>
      </trkpt>
      <trkpt lat="45.21565" lon="5.98477">
        <ele>1587.89</ele>
        <time>2019-08-09T09:04:31.000Z</time>
      </trkpt>
      <trkpt lat="45.21574" lon="5.98479">
        <ele>1588.69</ele>
        <time>2019-08-09T09:04:46.000Z</time>
      </trkpt>
      <trkpt lat="45.21583" lon="5.9848">
        <ele>1589.49</ele>
        <time>2019-08-09T09:05:04.000Z</time>
      </trkpt>
      <trkpt lat="45.21592" lon="5.98474">
        <ele>1593.24</ele>
        <time>2019-08-09T09:05:19.000Z</time>
      </trkpt>
      <trkpt lat="45.21601" lon="5.98468">
        <ele>1597.42</ele>
        <time>2019-08-09T09:05:29.000Z</time>
      </trkpt>
      <trkpt lat="45.2161" lon="5.9847">
        <ele>1597.01</ele>
        <time>2019-08-09T09:05:42.000Z</time>
      </trkpt>
      <trkpt lat="45.2162" lon="5.98467">
        <ele>1598.97</ele>
        <time>2019-08-09T09:05:54.000Z</time>
      </trkpt>
      <trkpt lat="45.21626" lon="5.98455">
        <ele>1606.18</ele>
        <time>2019-08-09T09:06:04.000Z</time>
      </trkpt>
      <trkpt lat="45.21623" lon="5.98443">
        <ele>1613.39</ele>
        <time>2019-08-09T09:06:28.000Z</time>
      </trkpt>
      <trkpt lat="45.21614" lon="5.98437">
        <ele>1616.76</ele>
        <time>2019-08-09T09:06:50.000Z</time>
      </trkpt>
      <trkpt lat="45.21605" lon="5.98436">
        <ele>1617.29</ele>
        <time>2019-08-09T09:07:03.000Z</time>
      </trkpt>
      <trkpt lat="45.21598" lon="5.98428">
        <ele>1621.01</ele>
        <time>2019-08-09T09:07:28.000Z</time>
      </trkpt>
      <trkpt lat="45.21588" lon="5.98426">
        <ele>1620.95</ele>
        <time>2019-08-09T09:07:43.000Z</time>
      </trkpt>
      <trkpt lat="45.21579" lon="5.98426">
        <ele>1619.85</ele>
        <time>2019-08-09T09:08:02.000Z</time>
      </trkpt>
      <trkpt lat="45.21571" lon="5.98415">
        <ele>1622.97</ele>
        <time>2019-08-09T09:08:29.000Z</time>
      </trkpt>
      <trkpt lat="45.21566" lon="5.98404">
        <ele>1626.62</ele>
        <time>2019-08-09T09:08:47.000Z</time>
      </trkpt>
      <trkpt lat="45.21559" lon="5.98396">
        <ele>1627.92</ele>
        <time>2019-08-09T09:09:03.000Z</time>
      </trkpt>
      <trkpt lat="45.2155" lon="5.98389">
        <ele>1627.97</ele>
        <time>2019-08-09T09:09:22.000Z</time>
      </trkpt>
      <trkpt lat="45.21543" lon="5.98381">
        <ele>1629.35</ele>
        <time>2019-08-09T09:09:36.000Z</time>
      </trkpt>
      <trkpt lat="45.21545" lon="5.98394">
        <ele>1623.88</ele>
        <time>2019-08-09T09:10:22.000Z</time>
      </trkpt>
      <trkpt lat="45.21554" lon="5.98395">
        <ele>1626.82</ele>
        <time>2019-08-09T09:10:43.000Z</time>
      </trkpt>
      <trkpt lat="45.21564" lon="5.98394">
        <ele>1630.46</ele>
        <time>2019-08-09T09:11:03.000Z</time>
      </trkpt>
      <trkpt lat="45.21573" lon="5.98392">
        <ele>1633.56</ele>
        <time>2019-08-09T09:11:21.000Z</time>
      </trkpt>
      <trkpt lat="45.21582" lon="5.98392">
        <ele>1635.6</ele>
        <time>2019-08-09T09:11:41.000Z</time>
      </trkpt>
      <trkpt lat="45.2159" lon="5.98385">
        <ele>1639.23</ele>
        <time>2019-08-09T09:11:57.000Z</time>
      </trkpt>
      <trkpt lat="45.21596" lon="5.98375">
        <ele>1643.28</ele>
        <time>2019-08-09T09:12:08.000Z</time>
      </trkpt>
      <trkpt lat="45.21592" lon="5.98363">
        <ele>1647.22</ele>
        <time>2019-08-09T09:12:37.000Z</time>
      </trkpt>
      <trkpt lat="45.21588" lon="5.98351">
        <ele>1650.66</ele>
        <time>2019-08-09T09:13:44.000Z</time>
      </trkpt>
      <trkpt lat="45.21584" lon="5.98337">
        <ele>1654.04</ele>
        <time>2019-08-09T09:14:17.000Z</time>
      </trkpt>
      <trkpt lat="45.21574" lon="5.98329">
        <ele>1655.52</ele>
        <time>2019-08-09T09:14:33.000Z</time>
      </trkpt>
      <trkpt lat="45.21567" lon="5.9832">
        <ele>1656.69</ele>
        <time>2019-08-09T09:14:49.000Z</time>
      </trkpt>
      <trkpt lat="45.21559" lon="5.98312">
        <ele>1657.86</ele>
        <time>2019-08-09T09:15:09.000Z</time>
      </trkpt>
      <trkpt lat="45.21554" lon="5.98302">
        <ele>1659.93</ele>
        <time>2019-08-09T09:15:26.000Z</time>
      </trkpt>
      <trkpt lat="45.21547" lon="5.98294">
        <ele>1661.69</ele>
        <time>2019-08-09T09:15:42.000Z</time>
      </trkpt>
      <trkpt lat="45.2154" lon="5.98284">
        <ele>1664.53</ele>
        <time>2019-08-09T09:15:54.000Z</time>
      </trkpt>
      <trkpt lat="45.21531" lon="5.9828">
        <ele>1666.39</ele>
        <time>2019-08-09T09:16:12.000Z</time>
      </trkpt>
      <trkpt lat="45.21522" lon="5.98276">
        <ele>1668.6</ele>
        <time>2019-08-09T09:16:26.000Z</time>
      </trkpt>
      <trkpt lat="45.21515" lon="5.98267">
        <ele>1672.24</ele>
        <time>2019-08-09T09:16:48.000Z</time>
      </trkpt>
      <trkpt lat="45.21507" lon="5.98261">
        <ele>1675.16</ele>
        <time>2019-08-09T09:17:03.000Z</time>
      </trkpt>
      <trkpt lat="45.21497" lon="5.98262">
        <ele>1674.92</ele>
        <time>2019-08-09T09:17:23.000Z</time>
      </trkpt>
      <trkpt lat="45.2149" lon="5.98254">
        <ele>1677.63</ele>
        <time>2019-08-09T09:17:40.000Z</time>
      </trkpt>
      <trkpt lat="45.21493" lon="5.98242">
        <ele>1681.15</ele>
        <time>2019-08-09T09:18:08.000Z</time>
      </trkpt>
      <trkpt lat="45.21494" lon="5.98229">
        <ele>1683.71</ele>
        <time>2019-08-09T09:18:36.000Z</time>
      </trkpt>
      <trkpt lat="45.21491" lon="5.98217">
        <ele>1685.13</ele>
        <time>2019-08-09T09:18:48.000Z</time>
      </trkpt>
      <trkpt lat="45.21491" lon="5.98203">
        <ele>1686.3</ele>
        <time>2019-08-09T09:19:05.000Z</time>
      </trkpt>
      <trkpt lat="45.21486" lon="5.98192">
        <ele>1686.83</ele>
        <time>2019-08-09T09:19:20.000Z</time>
      </trkpt>
      <trkpt lat="45.21482" lon="5.98181">
        <ele>1687.35</ele>
        <time>2019-08-09T09:19:36.000Z</time>
      </trkpt>
      <trkpt lat="45.21476" lon="5.98172">
        <ele>1687.75</ele>
        <time>2019-08-09T09:20:00.000Z</time>
      </trkpt>
      <trkpt lat="45.21469" lon="5.98162">
        <ele>1688.4</ele>
        <time>2019-08-09T09:20:12.000Z</time>
      </trkpt>
      <trkpt lat="45.21464" lon="5.98151">
        <ele>1689.54</ele>
        <time>2019-08-09T09:20:44.000Z</time>
      </trkpt>
      <trkpt lat="45.21458" lon="5.98142">
        <ele>1690.41</ele>
        <time>2019-08-09T09:20:55.000Z</time>
      </trkpt>
      <trkpt lat="45.21451" lon="5.98132">
        <ele>1691.72</ele>
        <time>2019-08-09T09:21:29.000Z</time>
      </trkpt>
      <trkpt lat="45.21445" lon="5.98122">
        <ele>1693.66</ele>
        <time>2019-08-09T09:27:47.000Z</time>
      </trkpt>
      <trkpt lat="45.21438" lon="5.98113">
        <ele>1695.76</ele>
        <time>2019-08-09T09:27:59.000Z</time>
      </trkpt>
      <trkpt lat="45.21436" lon="5.981">
        <ele>1698.83</ele>
        <time>2019-08-09T09:28:16.000Z</time>
      </trkpt>
      <trkpt lat="45.21429" lon="5.98091">
        <ele>1701.9</ele>
        <time>2019-08-09T09:28:27.000Z</time>
      </trkpt>
      <trkpt lat="45.2142" lon="5.98085">
        <ele>1705</ele>
        <time>2019-08-09T09:28:41.000Z</time>
      </trkpt>
      <trkpt lat="45.21411" lon="5.98085">
        <ele>1706.62</ele>
        <time>2019-08-09T09:28:52.000Z</time>
      </trkpt>
      <trkpt lat="45.21402" lon="5.98081">
        <ele>1709.55</ele>
        <time>2019-08-09T09:29:28.000Z</time>
      </trkpt>
      <trkpt lat="45.21393" lon="5.98077">
        <ele>1712.44</ele>
        <time>2019-08-09T09:29:42.000Z</time>
      </trkpt>
      <trkpt lat="45.21385" lon="5.98083">
        <ele>1713.26</ele>
        <time>2019-08-09T09:29:55.000Z</time>
      </trkpt>
      <trkpt lat="45.21376" lon="5.98087">
        <ele>1714.75</ele>
        <time>2019-08-09T09:30:17.000Z</time>
      </trkpt>
      <trkpt lat="45.2137" lon="5.98097">
        <ele>1714.5</ele>
        <time>2019-08-09T09:30:30.000Z</time>
      </trkpt>
      <trkpt lat="45.21365" lon="5.98108">
        <ele>1714.42</ele>
        <time>2019-08-09T09:30:42.000Z</time>
      </trkpt>
      <trkpt lat="45.21361" lon="5.9812">
        <ele>1713.99</ele>
        <time>2019-08-09T09:30:55.000Z</time>
      </trkpt>
      <trkpt lat="45.21358" lon="5.98133">
        <ele>1713.18</ele>
        <time>2019-08-09T09:31:09.000Z</time>
      </trkpt>
      <trkpt lat="45.21352" lon="5.98143">
        <ele>1714.37</ele>
        <time>2019-08-09T09:31:23.000Z</time>
      </trkpt>
      <trkpt lat="45.21348" lon="5.98154">
        <ele>1714.3</ele>
        <time>2019-08-09T09:31:39.000Z</time>
      </trkpt>
      <trkpt lat="45.21345" lon="5.98167">
        <ele>1713.69</ele>
        <time>2019-08-09T09:31:57.000Z</time>
      </trkpt>
      <trkpt lat="45.21339" lon="5.98178">
        <ele>1714.71</ele>
        <time>2019-08-09T09:32:30.000Z</time>
      </trkpt>
      <trkpt lat="45.21335" lon="5.9819">
        <ele>1715.16</ele>
        <time>2019-08-09T09:32:43.000Z</time>
      </trkpt>
      <trkpt lat="45.21329" lon="5.98201">
        <ele>1715.83</ele>
        <time>2019-08-09T09:32:56.000Z</time>
      </trkpt>
      <trkpt lat="45.21323" lon="5.98211">
        <ele>1717.04</ele>
        <time>2019-08-09T09:33:12.000Z</time>
      </trkpt>
      <trkpt lat="45.21317" lon="5.98223">
        <ele>1717</ele>
        <time>2019-08-09T09:33:26.000Z</time>
      </trkpt>
      <trkpt lat="45.2131" lon="5.98232">
        <ele>1717.92</ele>
        <time>2019-08-09T09:33:40.000Z</time>
      </trkpt>
      <trkpt lat="45.21302" lon="5.98241">
        <ele>1719.44</ele>
        <time>2019-08-09T09:33:50.000Z</time>
      </trkpt>
      <trkpt lat="45.21294" lon="5.98247">
        <ele>1721.68</ele>
        <time>2019-08-09T09:34:08.000Z</time>
      </trkpt>
      <trkpt lat="45.21289" lon="5.98259">
        <ele>1720.63</ele>
        <time>2019-08-09T09:34:35.000Z</time>
      </trkpt>
      <trkpt lat="45.21285" lon="5.9827">
        <ele>1719.05</ele>
        <time>2019-08-09T09:34:50.000Z</time>
      </trkpt>
      <trkpt lat="45.21277" lon="5.98277">
        <ele>1721.66</ele>
        <time>2019-08-09T09:35:04.000Z</time>
      </trkpt>
      <trkpt lat="45.21271" lon="5.98287">
        <ele>1722.68</ele>
        <time>2019-08-09T09:35:22.000Z</time>
      </trkpt>
      <trkpt lat="45.21266" lon="5.98299">
        <ele>1722.84</ele>
        <time>2019-08-09T09:43:12.000Z</time>
      </trkpt>
      <trkpt lat="45.21262" lon="5.98311">
        <ele>1722.84</ele>
        <time>2019-08-09T09:43:55.000Z</time>
      </trkpt>
      <trkpt lat="45.21258" lon="5.98323">
        <ele>1722.81</ele>
        <time>2019-08-09T09:44:08.000Z</time>
      </trkpt>
      <trkpt lat="45.21252" lon="5.98334">
        <ele>1725.06</ele>
        <time>2019-08-09T09:44:20.000Z</time>
      </trkpt>
      <trkpt lat="45.21245" lon="5.98346">
        <ele>1728.18</ele>
        <time>2019-08-09T09:44:30.000Z</time>
      </trkpt>
      <trkpt lat="45.21238" lon="5.98354">
        <ele>1733.01</ele>
        <time>2019-08-09T09:44:41.000Z</time>
      </trkpt>
      <trkpt lat="45.21231" lon="5.98364">
        <ele>1736.73</ele>
        <time>2019-08-09T09:44:51.000Z</time>
      </trkpt>
      <trkpt lat="45.21225" lon="5.98377">
        <ele>1738.49</ele>
        <time>2019-08-09T09:45:01.000Z</time>
      </trkpt>
      <trkpt lat="45.2122" lon="5.98389">
        <ele>1740.17</ele>
        <time>2019-08-09T09:45:11.000Z</time>
      </trkpt>
      <trkpt lat="45.21219" lon="5.98405">
        <ele>1737.45</ele>
        <time>2019-08-09T09:45:21.000Z</time>
      </trkpt>
      <trkpt lat="45.21217" lon="5.98418">
        <ele>1737.49</ele>
        <time>2019-08-09T09:45:31.000Z</time>
      </trkpt>
      <trkpt lat="45.21211" lon="5.98429">
        <ele>1741.96</ele>
        <time>2019-08-09T09:45:45.000Z</time>
      </trkpt>
      <trkpt lat="45.21208" lon="5.98442">
        <ele>1746.7</ele>
        <time>2019-08-09T09:45:57.000Z</time>
      </trkpt>
      <trkpt lat="45.21202" lon="5.98453">
        <ele>1755.16</ele>
        <time>2019-08-09T09:46:11.000Z</time>
      </trkpt>
      <trkpt lat="45.21207" lon="5.98465">
        <ele>1753.55</ele>
        <time>2019-08-09T09:47:11.000Z</time>
      </trkpt>
      <trkpt lat="45.21212" lon="5.98476">
        <ele>1749.11</ele>
        <time>2019-08-09T09:47:22.000Z</time>
      </trkpt>
      <trkpt lat="45.21214" lon="5.9849">
        <ele>1748.6</ele>
        <time>2019-08-09T09:47:38.000Z</time>
      </trkpt>
      <trkpt lat="45.21218" lon="5.98502">
        <ele>1745.25</ele>
        <time>2019-08-09T09:47:52.000Z</time>
      </trkpt>
      <trkpt lat="45.21221" lon="5.98514">
        <ele>1741.17</ele>
        <time>2019-08-09T09:48:14.000Z</time>
      </trkpt>
      <trkpt lat="45.21223" lon="5.98527">
        <ele>1739.5</ele>
        <time>2019-08-09T09:48:32.000Z</time>
      </trkpt>
      <trkpt lat="45.21222" lon="5.9854">
        <ele>1741.19</ele>
        <time>2019-08-09T09:48:54.000Z</time>
      </trkpt>
      <trkpt lat="45.21223" lon="5.98553">
        <ele>1741.35</ele>
        <time>2019-08-09T09:49:12.000Z</time>
      </trkpt>
      <trkpt lat="45.21222" lon="5.98566">
        <ele>1742.43</ele>
        <time>2019-08-09T09:49:28.000Z</time>
      </trkpt>
      <trkpt lat="45.21218" lon="5.98578">
        <ele>1744.95</ele>
        <time>2019-08-09T09:49:49.000Z</time>
      </trkpt>
      <trkpt lat="45.21215" lon="5.9859">
        <ele>1745.32</ele>
        <time>2019-08-09T09:50:07.000Z</time>
      </trkpt>
      <trkpt lat="45.21208" lon="5.98598">
        <ele>1749.96</ele>
        <time>2019-08-09T09:50:31.000Z</time>
      </trkpt>
      <trkpt lat="45.21199" lon="5.98604">
        <ele>1755.61</ele>
        <time>2019-08-09T09:50:52.000Z</time>
      </trkpt>
      <trkpt lat="45.2119" lon="5.98602">
        <ele>1764.28</ele>
        <time>2019-08-09T09:51:09.000Z</time>
      </trkpt>
      <trkpt lat="45.21181" lon="5.98607">
        <ele>1771.07</ele>
        <time>2019-08-09T09:51:24.000Z</time>
      </trkpt>
      <trkpt lat="45.21171" lon="5.98611">
        <ele>1778.14</ele>
        <time>2019-08-09T09:51:42.000Z</time>
      </trkpt>
      <trkpt lat="45.21178" lon="5.98602">
        <ele>1774.8</ele>
        <time>2019-08-09T09:52:27.000Z</time>
      </trkpt>
      <trkpt lat="45.21185" lon="5.98595">
        <ele>1770.32</ele>
        <time>2019-08-09T09:52:42.000Z</time>
      </trkpt>
      <trkpt lat="45.21177" lon="5.98589">
        <ele>1778.4</ele>
        <time>2019-08-09T09:53:17.000Z</time>
      </trkpt>
      <trkpt lat="45.21168" lon="5.98591">
        <ele>1785.43</ele>
        <time>2019-08-09T09:53:32.000Z</time>
      </trkpt>
      <trkpt lat="45.21159" lon="5.98594">
        <ele>1791.64</ele>
        <time>2019-08-09T09:53:50.000Z</time>
      </trkpt>
      <trkpt lat="45.21151" lon="5.986">
        <ele>1796.87</ele>
        <time>2019-08-09T09:54:11.000Z</time>
      </trkpt>
      <trkpt lat="45.21145" lon="5.9861">
        <ele>1799.78</ele>
        <time>2019-08-09T09:54:29.000Z</time>
      </trkpt>
      <trkpt lat="45.21142" lon="5.98623">
        <ele>1800.79</ele>
        <time>2019-08-09T09:54:39.000Z</time>
      </trkpt>
      <trkpt lat="45.21141" lon="5.98636">
        <ele>1800.78</ele>
        <time>2019-08-09T09:54:50.000Z</time>
      </trkpt>
      <trkpt lat="45.21143" lon="5.98648">
        <ele>1798.26</ele>
        <time>2019-08-09T09:55:00.000Z</time>
      </trkpt>
      <trkpt lat="45.21144" lon="5.98663">
        <ele>1797.31</ele>
        <time>2019-08-09T09:55:10.000Z</time>
      </trkpt>
      <trkpt lat="45.21144" lon="5.98677">
        <ele>1796.94</ele>
        <time>2019-08-09T09:55:22.000Z</time>
      </trkpt>
      <trkpt lat="45.21145" lon="5.98692">
        <ele>1796.66</ele>
        <time>2019-08-09T09:55:37.000Z</time>
      </trkpt>
      <trkpt lat="45.2115" lon="5.98704">
        <ele>1793.11</ele>
        <time>2019-08-09T09:55:49.000Z</time>
      </trkpt>
      <trkpt lat="45.21149" lon="5.98717">
        <ele>1795.02</ele>
        <time>2019-08-09T09:56:03.000Z</time>
      </trkpt>
      <trkpt lat="45.21144" lon="5.98728">
        <ele>1800.49</ele>
        <time>2019-08-09T09:56:16.000Z</time>
      </trkpt>
      <trkpt lat="45.21139" lon="5.9874">
        <ele>1805.59</ele>
        <time>2019-08-09T09:56:33.000Z</time>
      </trkpt>
      <trkpt lat="45.2114" lon="5.98753">
        <ele>1805.92</ele>
        <time>2019-08-09T09:56:49.000Z</time>
      </trkpt>
      <trkpt lat="45.21142" lon="5.98767">
        <ele>1805.47</ele>
        <time>2019-08-09T09:57:07.000Z</time>
      </trkpt>
      <trkpt lat="45.21143" lon="5.9878">
        <ele>1805.77</ele>
        <time>2019-08-09T09:57:23.000Z</time>
      </trkpt>
      <trkpt lat="45.21142" lon="5.98793">
        <ele>1808.65</ele>
        <time>2019-08-09T09:57:42.000Z</time>
      </trkpt>
      <trkpt lat="45.21139" lon="5.98805">
        <ele>1812.01</ele>
        <time>2019-08-09T09:58:42.000Z</time>
      </trkpt>
      <trkpt lat="45.21133" lon="5.98815">
        <ele>1817.32</ele>
        <time>2019-08-09T09:59:11.000Z</time>
      </trkpt>
      <trkpt lat="45.21131" lon="5.98827">
        <ele>1819.22</ele>
        <time>2019-08-09T09:59:30.000Z</time>
      </trkpt>
      <trkpt lat="45.21126" lon="5.98839">
        <ele>1821.98</ele>
        <time>2019-08-09T09:59:49.000Z</time>
      </trkpt>
      <trkpt lat="45.21119" lon="5.98846">
        <ele>1826.49</ele>
        <time>2019-08-09T10:00:14.000Z</time>
      </trkpt>
      <trkpt lat="45.21121" lon="5.98834">
        <ele>1825</ele>
        <time>2019-08-09T10:00:49.000Z</time>
      </trkpt>
      <trkpt lat="45.2112" lon="5.98821">
        <ele>1825.96</ele>
        <time>2019-08-09T10:01:09.000Z</time>
      </trkpt>
      <trkpt lat="45.21116" lon="5.98809">
        <ele>1827.95</ele>
        <time>2019-08-09T10:01:31.000Z</time>
      </trkpt>
      <trkpt lat="45.21111" lon="5.98798">
        <ele>1830.31</ele>
        <time>2019-08-09T10:01:52.000Z</time>
      </trkpt>
      <trkpt lat="45.21102" lon="5.98795">
        <ele>1836.33</ele>
        <time>2019-08-09T10:02:29.000Z</time>
      </trkpt>
      <trkpt lat="45.211" lon="5.98808">
        <ele>1837.75</ele>
        <time>2019-08-09T10:02:46.000Z</time>
      </trkpt>
      <trkpt lat="45.21096" lon="5.98819">
        <ele>1840.89</ele>
        <time>2019-08-09T10:03:10.000Z</time>
      </trkpt>
      <trkpt lat="45.21096" lon="5.98832">
        <ele>1840.7</ele>
        <time>2019-08-09T10:03:26.000Z</time>
      </trkpt>
      <trkpt lat="45.21088" lon="5.98839">
        <ele>1846.36</ele>
        <time>2019-08-09T10:03:55.000Z</time>
      </trkpt>
      <trkpt lat="45.21082" lon="5.98848">
        <ele>1851.25</ele>
        <time>2019-08-09T10:04:25.000Z</time>
      </trkpt>
      <trkpt lat="45.21087" lon="5.98836">
        <ele>1847.61</ele>
        <time>2019-08-09T10:04:47.000Z</time>
      </trkpt>
      <trkpt lat="45.21087" lon="5.98823">
        <ele>1847.54</ele>
        <time>2019-08-09T10:05:24.000Z</time>
      </trkpt>
      <trkpt lat="45.21082" lon="5.98812">
        <ele>1851.21</ele>
        <time>2019-08-09T10:05:43.000Z</time>
      </trkpt>
      <trkpt lat="45.21077" lon="5.98801">
        <ele>1855.33</ele>
        <time>2019-08-09T10:06:05.000Z</time>
      </trkpt>
      <trkpt lat="45.21074" lon="5.98789">
        <ele>1858.16</ele>
        <time>2019-08-09T10:06:27.000Z</time>
      </trkpt>
      <trkpt lat="45.21065" lon="5.98792">
        <ele>1866.6</ele>
        <time>2019-08-09T10:06:58.000Z</time>
      </trkpt>
      <trkpt lat="45.21059" lon="5.98803">
        <ele>1871.97</ele>
        <time>2019-08-09T10:07:21.000Z</time>
      </trkpt>
      <trkpt lat="45.21059" lon="5.98816">
        <ele>1872.33</ele>
        <time>2019-08-09T10:07:40.000Z</time>
      </trkpt>
      <trkpt lat="45.21055" lon="5.98828">
        <ele>1875.85</ele>
        <time>2019-08-09T10:08:06.000Z</time>
      </trkpt>
      <trkpt lat="45.21054" lon="5.98815">
        <ele>1877.32</ele>
        <time>2019-08-09T10:10:18.000Z</time>
      </trkpt>
      <trkpt lat="45.21049" lon="5.98804">
        <ele>1882.1</ele>
        <time>2019-08-09T10:10:48.000Z</time>
      </trkpt>
      <trkpt lat="45.2104" lon="5.98803">
        <ele>1891.26</ele>
        <time>2019-08-09T10:11:16.000Z</time>
      </trkpt>
      <trkpt lat="45.21038" lon="5.98815">
        <ele>1892.47</ele>
        <time>2019-08-09T10:11:39.000Z</time>
      </trkpt>
      <trkpt lat="45.21032" lon="5.98826">
        <ele>1897.46</ele>
        <time>2019-08-09T10:12:10.000Z</time>
      </trkpt>
      <trkpt lat="45.21025" lon="5.98834">
        <ele>1903.52</ele>
        <time>2019-08-09T10:12:35.000Z</time>
      </trkpt>
      <trkpt lat="45.21016" lon="5.98835">
        <ele>1910.58</ele>
        <time>2019-08-09T10:13:45.000Z</time>
      </trkpt>
      <trkpt lat="45.2101" lon="5.98845">
        <ele>1914.1</ele>
        <time>2019-08-09T10:14:07.000Z</time>
      </trkpt>
      <trkpt lat="45.21005" lon="5.98856">
        <ele>1917.25</ele>
        <time>2019-08-09T10:14:28.000Z</time>
      </trkpt>
      <trkpt lat="45.21001" lon="5.98868">
        <ele>1919.09</ele>
        <time>2019-08-09T10:14:46.000Z</time>
      </trkpt>
      <trkpt lat="45.21003" lon="5.98882">
        <ele>1918.75</ele>
        <time>2019-08-09T10:15:03.000Z</time>
      </trkpt>
      <trkpt lat="45.21003" lon="5.98895">
        <ele>1919.13</ele>
        <time>2019-08-09T10:15:20.000Z</time>
      </trkpt>
      <trkpt lat="45.20996" lon="5.98887">
        <ele>1921.49</ele>
        <time>2019-08-09T10:16:16.000Z</time>
      </trkpt>
      <trkpt lat="45.20987" lon="5.98889">
        <ele>1923.46</ele>
        <time>2019-08-09T10:21:58.000Z</time>
      </trkpt>
      <trkpt lat="45.20978" lon="5.98891">
        <ele>1924.04</ele>
        <time>2019-08-09T10:28:57.000Z</time>
      </trkpt>
      <trkpt lat="45.20969" lon="5.98886">
        <ele>1923.31</ele>
        <time>2019-08-09T10:29:19.000Z</time>
      </trkpt>
      <trkpt lat="45.20959" lon="5.98883">
        <ele>1921.6</ele>
        <time>2019-08-09T10:29:57.000Z</time>
      </trkpt>
      <trkpt lat="45.2095" lon="5.9888">
        <ele>1919.64</ele>
        <time>2019-08-09T10:30:17.000Z</time>
      </trkpt>
      <trkpt lat="45.20941" lon="5.98876">
        <ele>1917.56</ele>
        <time>2019-08-09T10:30:33.000Z</time>
      </trkpt>
      <trkpt lat="45.20932" lon="5.98871">
        <ele>1915.5</ele>
        <time>2019-08-09T10:30:52.000Z</time>
      </trkpt>
      <trkpt lat="45.20926" lon="5.98863">
        <ele>1913.83</ele>
        <time>2019-08-09T10:31:15.000Z</time>
      </trkpt>
      <trkpt lat="45.20917" lon="5.98858">
        <ele>1912.6</ele>
        <time>2019-08-09T10:31:35.000Z</time>
      </trkpt>
      <trkpt lat="45.20908" lon="5.98858">
        <ele>1912.18</ele>
        <time>2019-08-09T10:31:49.000Z</time>
      </trkpt>
      <trkpt lat="45.20899" lon="5.98861">
        <ele>1912.17</ele>
        <time>2019-08-09T10:32:04.000Z</time>
      </trkpt>
      <trkpt lat="45.20895" lon="5.98873">
        <ele>1913.66</ele>
        <time>2019-08-09T10:43:56.000Z</time>
      </trkpt>
      <trkpt lat="45.20888" lon="5.98879">
        <ele>1914.79</ele>
        <time>2019-08-09T10:44:29.000Z</time>
      </trkpt>
      <trkpt lat="45.20884" lon="5.98892">
        <ele>1917.1</ele>
        <time>2019-08-09T10:45:05.000Z</time>
      </trkpt>
      <trkpt lat="45.20874" lon="5.98889">
        <ele>1917.3</ele>
        <time>2019-08-09T10:45:29.000Z</time>
      </trkpt>
      <trkpt lat="45.20864" lon="5.98887">
        <ele>1917.52</ele>
        <time>2019-08-09T10:45:45.000Z</time>
      </trkpt>
      <trkpt lat="45.20856" lon="5.98894">
        <ele>1919.87</ele>
        <time>2019-08-09T10:45:57.000Z</time>
      </trkpt>
      <trkpt lat="45.20848" lon="5.98889">
        <ele>1919.35</ele>
        <time>2019-08-09T10:46:23.000Z</time>
      </trkpt>
      <trkpt lat="45.20839" lon="5.98885">
        <ele>1918.9</ele>
        <time>2019-08-09T10:46:39.000Z</time>
      </trkpt>
      <trkpt lat="45.20829" lon="5.98888">
        <ele>1920.22</ele>
        <time>2019-08-09T10:46:53.000Z</time>
      </trkpt>
      <trkpt lat="45.2082" lon="5.98885">
        <ele>1919.88</ele>
        <time>2019-08-09T10:47:11.000Z</time>
      </trkpt>
      <trkpt lat="45.20811" lon="5.98884">
        <ele>1920.2</ele>
        <time>2019-08-09T10:47:24.000Z</time>
      </trkpt>
      <trkpt lat="45.20802" lon="5.98891">
        <ele>1923.45</ele>
        <time>2019-08-09T10:47:44.000Z</time>
      </trkpt>
      <trkpt lat="45.20793" lon="5.98891">
        <ele>1924.47</ele>
        <time>2019-08-09T10:48:04.000Z</time>
      </trkpt>
      <trkpt lat="45.20783" lon="5.98888">
        <ele>1924.14</ele>
        <time>2019-08-09T10:48:23.000Z</time>
      </trkpt>
      <trkpt lat="45.20774" lon="5.98889">
        <ele>1925.24</ele>
        <time>2019-08-09T10:48:35.000Z</time>
      </trkpt>
      <trkpt lat="45.20765" lon="5.98895">
        <ele>1928.31</ele>
        <time>2019-08-09T10:48:58.000Z</time>
      </trkpt>
      <trkpt lat="45.20756" lon="5.98897">
        <ele>1930.01</ele>
        <time>2019-08-09T10:49:18.000Z</time>
      </trkpt>
      <trkpt lat="45.20748" lon="5.98902">
        <ele>1933.22</ele>
        <time>2019-08-09T10:49:42.000Z</time>
      </trkpt>
      <trkpt lat="45.20738" lon="5.98902">
        <ele>1933.52</ele>
        <time>2019-08-09T10:49:55.000Z</time>
      </trkpt>
      <trkpt lat="45.20729" lon="5.98906">
        <ele>1935.25</ele>
        <time>2019-08-09T10:50:17.000Z</time>
      </trkpt>
      <trkpt lat="45.2072" lon="5.98906">
        <ele>1935.19</ele>
        <time>2019-08-09T10:50:33.000Z</time>
      </trkpt>
      <trkpt lat="45.20711" lon="5.9891">
        <ele>1936.93</ele>
        <time>2019-08-09T10:50:52.000Z</time>
      </trkpt>
      <trkpt lat="45.20702" lon="5.98914">
        <ele>1938.92</ele>
        <time>2019-08-09T10:51:10.000Z</time>
      </trkpt>
      <trkpt lat="45.20693" lon="5.98918">
        <ele>1941.02</ele>
        <time>2019-08-09T10:51:32.000Z</time>
      </trkpt>
      <trkpt lat="45.20685" lon="5.98927">
        <ele>1945.98</ele>
        <time>2019-08-09T10:51:51.000Z</time>
      </trkpt>
      <trkpt lat="45.20675" lon="5.98929">
        <ele>1948.32</ele>
        <time>2019-08-09T10:52:25.000Z</time>
      </trkpt>
      <trkpt lat="45.20667" lon="5.98922">
        <ele>1945.89</ele>
        <time>2019-08-09T10:52:57.000Z</time>
      </trkpt>
      <trkpt lat="45.20658" lon="5.9892">
        <ele>1947.05</ele>
        <time>2019-08-09T10:53:14.000Z</time>
      </trkpt>
      <trkpt lat="45.20648" lon="5.9892">
        <ele>1949.78</ele>
        <time>2019-08-09T10:53:40.000Z</time>
      </trkpt>
      <trkpt lat="45.20639" lon="5.98921">
        <ele>1953.47</ele>
        <time>2019-08-09T10:54:04.000Z</time>
      </trkpt>
      <trkpt lat="45.2063" lon="5.98918">
        <ele>1955.9</ele>
        <time>2019-08-09T10:54:21.000Z</time>
      </trkpt>
      <trkpt lat="45.20624" lon="5.98907">
        <ele>1953.53</ele>
        <time>2019-08-09T10:54:40.000Z</time>
      </trkpt>
      <trkpt lat="45.20617" lon="5.98899">
        <ele>1953.23</ele>
        <time>2019-08-09T10:54:53.000Z</time>
      </trkpt>
      <trkpt lat="45.20608" lon="5.98893">
        <ele>1954.65</ele>
        <time>2019-08-09T10:55:12.000Z</time>
      </trkpt>
      <trkpt lat="45.20599" lon="5.98887">
        <ele>1956.22</ele>
        <time>2019-08-09T10:55:27.000Z</time>
      </trkpt>
      <trkpt lat="45.20591" lon="5.9888">
        <ele>1956.53</ele>
        <time>2019-08-09T10:55:43.000Z</time>
      </trkpt>
      <trkpt lat="45.20583" lon="5.98875">
        <ele>1957.57</ele>
        <time>2019-08-09T10:56:01.000Z</time>
      </trkpt>
      <trkpt lat="45.20574" lon="5.98872">
        <ele>1959.35</ele>
        <time>2019-08-09T10:56:14.000Z</time>
      </trkpt>
      <trkpt lat="45.20565" lon="5.98868">
        <ele>1960.1</ele>
        <time>2019-08-09T10:56:56.000Z</time>
      </trkpt>
      <trkpt lat="45.20556" lon="5.98865">
        <ele>1961.42</ele>
        <time>2019-08-09T10:57:10.000Z</time>
      </trkpt>
      <trkpt lat="45.20546" lon="5.98864">
        <ele>1963.4</ele>
        <time>2019-08-09T10:57:27.000Z</time>
      </trkpt>
      <trkpt lat="45.20536" lon="5.98862">
        <ele>1964.95</ele>
        <time>2019-08-09T10:57:43.000Z</time>
      </trkpt>
      <trkpt lat="45.20528" lon="5.98859">
        <ele>1965.86</ele>
        <time>2019-08-09T10:57:57.000Z</time>
      </trkpt>
      <trkpt lat="45.20519" lon="5.98859">
        <ele>1968.55</ele>
        <time>2019-08-09T10:58:20.000Z</time>
      </trkpt>
      <trkpt lat="45.20511" lon="5.98852">
        <ele>1969.11</ele>
        <time>2019-08-09T10:58:54.000Z</time>
      </trkpt>
      <trkpt lat="45.20503" lon="5.98846">
        <ele>1970.54</ele>
        <time>2019-08-09T10:59:13.000Z</time>
      </trkpt>
      <trkpt lat="45.20493" lon="5.98848">
        <ele>1975.03</ele>
        <time>2019-08-09T10:59:50.000Z</time>
      </trkpt>
      <trkpt lat="45.20488" lon="5.98837">
        <ele>1974.91</ele>
        <time>2019-08-09T11:00:15.000Z</time>
      </trkpt>
      <trkpt lat="45.20481" lon="5.98829">
        <ele>1976.97</ele>
        <time>2019-08-09T11:01:57.000Z</time>
      </trkpt>
      <trkpt lat="45.20485" lon="5.98817">
        <ele>1974.56</ele>
        <time>2019-08-09T11:03:28.000Z</time>
      </trkpt>
      <trkpt lat="45.20483" lon="5.98803">
        <ele>1976.62</ele>
        <time>2019-08-09T11:03:52.000Z</time>
      </trkpt>
      <trkpt lat="45.2048" lon="5.9879">
        <ele>1980.04</ele>
        <time>2019-08-09T11:04:44.000Z</time>
      </trkpt>
      <trkpt lat="45.2048" lon="5.98776">
        <ele>1983.01</ele>
        <time>2019-08-09T11:05:11.000Z</time>
      </trkpt>
      <trkpt lat="45.20483" lon="5.98764">
        <ele>1984.52</ele>
        <time>2019-08-09T11:05:31.000Z</time>
      </trkpt>
      <trkpt lat="45.20483" lon="5.98751">
        <ele>1987.25</ele>
        <time>2019-08-09T11:05:52.000Z</time>
      </trkpt>
      <trkpt lat="45.20487" lon="5.98739">
        <ele>1987.8</ele>
        <time>2019-08-09T11:06:11.000Z</time>
      </trkpt>
      <trkpt lat="45.20477" lon="5.98738">
        <ele>1993.02</ele>
        <time>2019-08-09T11:07:08.000Z</time>
      </trkpt>
      <trkpt lat="45.20478" lon="5.98725">
        <ele>1995.42</ele>
        <time>2019-08-09T11:07:56.000Z</time>
      </trkpt>
      <trkpt lat="45.20469" lon="5.98721">
        <ele>2001.18</ele>
        <time>2019-08-09T11:08:23.000Z</time>
      </trkpt>
      <trkpt lat="45.2046" lon="5.98723">
        <ele>2005.69</ele>
        <time>2019-08-09T11:08:48.000Z</time>
      </trkpt>
      <trkpt lat="45.20451" lon="5.98727">
        <ele>2009.22</ele>
        <time>2019-08-09T11:09:13.000Z</time>
      </trkpt>
      <trkpt lat="45.20453" lon="5.98714">
        <ele>2011.83</ele>
        <time>2019-08-09T11:10:04.000Z</time>
      </trkpt>
      <trkpt lat="45.20458" lon="5.98703">
        <ele>2012.39</ele>
        <time>2019-08-09T11:10:26.000Z</time>
      </trkpt>
      <trkpt lat="45.20448" lon="5.98703">
        <ele>2017.75</ele>
        <time>2019-08-09T11:11:15.000Z</time>
      </trkpt>
      <trkpt lat="45.20439" lon="5.98704">
        <ele>2022.66</ele>
        <time>2019-08-09T11:11:40.000Z</time>
      </trkpt>
      <trkpt lat="45.2043" lon="5.98708">
        <ele>2026.12</ele>
        <time>2019-08-09T11:12:09.000Z</time>
      </trkpt>
      <trkpt lat="45.20433" lon="5.98695">
        <ele>2028.95</ele>
        <time>2019-08-09T11:13:24.000Z</time>
      </trkpt>
      <trkpt lat="45.20429" lon="5.98684">
        <ele>2035.54</ele>
        <time>2019-08-09T11:14:01.000Z</time>
      </trkpt>
      <trkpt lat="45.2042" lon="5.98687">
        <ele>2039.32</ele>
        <time>2019-08-09T11:14:34.000Z</time>
      </trkpt>
      <trkpt lat="45.20411" lon="5.98689">
        <ele>2043.47</ele>
        <time>2019-08-09T11:15:08.000Z</time>
      </trkpt>
      <trkpt lat="45.20402" lon="5.9869">
        <ele>2048.09</ele>
        <time>2019-08-09T11:16:14.000Z</time>
      </trkpt>
      <trkpt lat="45.20393" lon="5.98693">
        <ele>2052.35</ele>
        <time>2019-08-09T11:17:00.000Z</time>
      </trkpt>
      <trkpt lat="45.20386" lon="5.98684">
        <ele>2059.62</ele>
        <time>2019-08-09T11:18:25.000Z</time>
      </trkpt>
      <trkpt lat="45.20376" lon="5.98689">
        <ele>2062.56</ele>
        <time>2019-08-09T11:19:08.000Z</time>
      </trkpt>
      <trkpt lat="45.20369" lon="5.98696">
        <ele>2063.85</ele>
        <time>2019-08-09T11:19:27.000Z</time>
      </trkpt>
      <trkpt lat="45.2036" lon="5.98704">
        <ele>2065.44</ele>
        <time>2019-08-09T11:20:03.000Z</time>
      </trkpt>
      <trkpt lat="45.20351" lon="5.98706">
        <ele>2068.8</ele>
        <time>2019-08-09T11:20:28.000Z</time>
      </trkpt>
      <trkpt lat="45.20342" lon="5.98712">
        <ele>2070.32</ele>
        <time>2019-08-09T11:20:53.000Z</time>
      </trkpt>
      <trkpt lat="45.20334" lon="5.98718">
        <ele>2071.34</ele>
        <time>2019-08-09T11:21:23.000Z</time>
      </trkpt>
      <trkpt lat="45.20326" lon="5.98711">
        <ele>2077.45</ele>
        <time>2019-08-09T11:22:03.000Z</time>
      </trkpt>
      <trkpt lat="45.20317" lon="5.98712">
        <ele>2080.23</ele>
        <time>2019-08-09T11:22:53.000Z</time>
      </trkpt>
      <trkpt lat="45.2031" lon="5.98703">
        <ele>2087.1</ele>
        <time>2019-08-09T11:24:32.000Z</time>
      </trkpt>
      <trkpt lat="45.20301" lon="5.987">
        <ele>2091.44</ele>
        <time>2019-08-09T11:25:14.000Z</time>
      </trkpt>
      <trkpt lat="45.20299" lon="5.98688">
        <ele>2098.28</ele>
        <time>2019-08-09T11:25:50.000Z</time>
      </trkpt>
      <trkpt lat="45.20301" lon="5.98675">
        <ele>2103.67</ele>
        <time>2019-08-09T11:27:38.000Z</time>
      </trkpt>
      <trkpt lat="45.20292" lon="5.98676">
        <ele>2106.5</ele>
        <time>2019-08-09T11:28:08.000Z</time>
      </trkpt>
      <trkpt lat="45.20289" lon="5.98664">
        <ele>2113.2</ele>
        <time>2019-08-09T11:29:02.000Z</time>
      </trkpt>
      <trkpt lat="45.20284" lon="5.98652">
        <ele>2119.86</ele>
        <time>2019-08-09T11:30:55.000Z</time>
      </trkpt>
      <trkpt lat="45.20276" lon="5.98646">
        <ele>2125.67</ele>
        <time>2019-08-09T11:31:56.000Z</time>
      </trkpt>
      <trkpt lat="45.20266" lon="5.98643">
        <ele>2130.72</ele>
        <time>2019-08-09T11:32:36.000Z</time>
      </trkpt>
      <trkpt lat="45.20257" lon="5.98648">
        <ele>2132.5</ele>
        <time>2019-08-09T11:33:08.000Z</time>
      </trkpt>
      <trkpt lat="45.20248" lon="5.98649">
        <ele>2136.15</ele>
        <time>2019-08-09T11:33:38.000Z</time>
      </trkpt>
      <trkpt lat="45.20238" lon="5.98651">
        <ele>2140.27</ele>
        <time>2019-08-09T11:34:10.000Z</time>
      </trkpt>
      <trkpt lat="45.20229" lon="5.98651">
        <ele>2145.24</ele>
        <time>2019-08-09T11:34:36.000Z</time>
      </trkpt>
      <trkpt lat="45.2022" lon="5.98649">
        <ele>2151.01</ele>
        <time>2019-08-09T11:35:08.000Z</time>
      </trkpt>
      <trkpt lat="45.20211" lon="5.98649">
        <ele>2156.41</ele>
        <time>2019-08-09T11:35:31.000Z</time>
      </trkpt>
      <trkpt lat="45.20202" lon="5.98647">
        <ele>2162.46</ele>
        <time>2019-08-09T11:36:41.000Z</time>
      </trkpt>
      <trkpt lat="45.20194" lon="5.98654">
        <ele>2162.94</ele>
        <time>2019-08-09T11:37:13.000Z</time>
      </trkpt>
      <trkpt lat="45.20186" lon="5.9866">
        <ele>2163.06</ele>
        <time>2019-08-09T11:45:22.000Z</time>
      </trkpt>
      <trkpt lat="45.20178" lon="5.98667">
        <ele>2162.6</ele>
        <time>2019-08-09T11:45:54.000Z</time>
      </trkpt>
      <trkpt lat="45.20169" lon="5.98664">
        <ele>2168.86</ele>
        <time>2019-08-09T11:46:43.000Z</time>
      </trkpt>
      <trkpt lat="45.2016" lon="5.98668">
        <ele>2170.09</ele>
        <time>2019-08-09T11:47:35.000Z</time>
      </trkpt>
      <trkpt lat="45.20151" lon="5.9867">
        <ele>2172.82</ele>
        <time>2019-08-09T11:48:07.000Z</time>
      </trkpt>
      <trkpt lat="45.20142" lon="5.98672">
        <ele>2175.63</ele>
        <time>2019-08-09T11:48:34.000Z</time>
      </trkpt>
      <trkpt lat="45.20133" lon="5.98669">
        <ele>2181.22</ele>
        <time>2019-08-09T11:49:32.000Z</time>
      </trkpt>
      <trkpt lat="45.20124" lon="5.98664">
        <ele>2187.47</ele>
        <time>2019-08-09T11:49:59.000Z</time>
      </trkpt>
      <trkpt lat="45.20116" lon="5.98659">
        <ele>2193.07</ele>
        <time>2019-08-09T11:50:43.000Z</time>
      </trkpt>
      <trkpt lat="45.20107" lon="5.98657">
        <ele>2197.56</ele>
        <time>2019-08-09T11:51:46.000Z</time>
      </trkpt>
      <trkpt lat="45.20098" lon="5.9866">
        <ele>2199.45</ele>
        <time>2019-08-09T11:52:13.000Z</time>
      </trkpt>
      <trkpt lat="45.20089" lon="5.98663">
        <ele>2202.28</ele>
        <time>2019-08-09T11:52:47.000Z</time>
      </trkpt>
      <trkpt lat="45.2008" lon="5.98659">
        <ele>2207.55</ele>
        <time>2019-08-09T11:53:18.000Z</time>
      </trkpt>
      <trkpt lat="45.20071" lon="5.98661">
        <ele>2211.15</ele>
        <time>2019-08-09T11:53:31.000Z</time>
      </trkpt>
      <trkpt lat="45.20062" lon="5.98658">
        <ele>2216.18</ele>
        <time>2019-08-09T11:53:52.000Z</time>
      </trkpt>
      <trkpt lat="45.20056" lon="5.98668">
        <ele>2215.6</ele>
        <time>2019-08-09T11:54:13.000Z</time>
      </trkpt>
      <trkpt lat="45.20049" lon="5.98677">
        <ele>2215.56</ele>
        <time>2019-08-09T11:54:30.000Z</time>
      </trkpt>
      <trkpt lat="45.20043" lon="5.98686">
        <ele>2215.79</ele>
        <time>2019-08-09T11:54:45.000Z</time>
      </trkpt>
      <trkpt lat="45.20035" lon="5.98692">
        <ele>2218.17</ele>
        <time>2019-08-09T11:55:02.000Z</time>
      </trkpt>
      <trkpt lat="45.20026" lon="5.98696">
        <ele>2221.72</ele>
        <time>2019-08-09T11:55:21.000Z</time>
      </trkpt>
      <trkpt lat="45.20019" lon="5.98705">
        <ele>2223.29</ele>
        <time>2019-08-09T11:56:06.000Z</time>
      </trkpt>
      <trkpt lat="45.20017" lon="5.98718">
        <ele>2220.79</ele>
        <time>2019-08-09T11:56:30.000Z</time>
      </trkpt>
      <trkpt lat="45.20011" lon="5.98728">
        <ele>2221.96</ele>
        <time>2019-08-09T11:56:42.000Z</time>
      </trkpt>
      <trkpt lat="45.20007" lon="5.98739">
        <ele>2221.83</ele>
        <time>2019-08-09T11:57:00.000Z</time>
      </trkpt>
      <trkpt lat="45.2" lon="5.98748">
        <ele>2224.25</ele>
        <time>2019-08-09T11:57:12.000Z</time>
      </trkpt>
      <trkpt lat="45.19995" lon="5.9876">
        <ele>2225.28</ele>
        <time>2019-08-09T11:57:36.000Z</time>
      </trkpt>
      <trkpt lat="45.19991" lon="5.98772">
        <ele>2225.18</ele>
        <time>2019-08-09T11:58:15.000Z</time>
      </trkpt>
      <trkpt lat="45.19985" lon="5.98782">
        <ele>2226.33</ele>
        <time>2019-08-09T11:58:49.000Z</time>
      </trkpt>
      <trkpt lat="45.19979" lon="5.98791">
        <ele>2228.39</ele>
        <time>2019-08-09T11:59:31.000Z</time>
      </trkpt>
      <trkpt lat="45.19973" lon="5.98801">
        <ele>2231.07</ele>
        <time>2019-08-09T11:59:53.000Z</time>
      </trkpt>
      <trkpt lat="45.19969" lon="5.98813">
        <ele>2232.4</ele>
        <time>2019-08-09T12:00:13.000Z</time>
      </trkpt>
      <trkpt lat="45.19966" lon="5.98825">
        <ele>2233.64</ele>
        <time>2019-08-09T12:00:29.000Z</time>
      </trkpt>
      <trkpt lat="45.19973" lon="5.98834">
        <ele>2228.31</ele>
        <time>2019-08-09T12:01:19.000Z</time>
      </trkpt>
      <trkpt lat="45.19972" lon="5.98847">
        <ele>2229.6</ele>
        <time>2019-08-09T12:01:55.000Z</time>
      </trkpt>
      <trkpt lat="45.19969" lon="5.9886">
        <ele>2232.31</ele>
        <time>2019-08-09T12:02:28.000Z</time>
      </trkpt>
      <trkpt lat="45.19967" lon="5.98873">
        <ele>2235.26</ele>
        <time>2019-08-09T12:02:57.000Z</time>
      </trkpt>
      <trkpt lat="45.19967" lon="5.98886">
        <ele>2237.62</ele>
        <time>2019-08-09T12:03:27.000Z</time>
      </trkpt>
      <trkpt lat="45.19962" lon="5.98897">
        <ele>2241.57</ele>
        <time>2019-08-09T12:04:04.000Z</time>
      </trkpt>
      <trkpt lat="45.19958" lon="5.98909">
        <ele>2244.7</ele>
        <time>2019-08-09T12:04:27.000Z</time>
      </trkpt>
      <trkpt lat="45.1996" lon="5.98922">
        <ele>2246.49</ele>
        <time>2019-08-09T12:04:48.000Z</time>
      </trkpt>
      <trkpt lat="45.19959" lon="5.98935">
        <ele>2249.14</ele>
        <time>2019-08-09T12:05:25.000Z</time>
      </trkpt>
      <trkpt lat="45.19959" lon="5.9895">
        <ele>2252.29</ele>
        <time>2019-08-09T12:06:01.000Z</time>
      </trkpt>
      <trkpt lat="45.19957" lon="5.98962">
        <ele>2255.48</ele>
        <time>2019-08-09T12:06:30.000Z</time>
      </trkpt>
      <trkpt lat="45.19958" lon="5.98975">
        <ele>2258.62</ele>
        <time>2019-08-09T12:06:51.000Z</time>
      </trkpt>
      <trkpt lat="45.1996" lon="5.98988">
        <ele>2261.47</ele>
        <time>2019-08-09T12:07:18.000Z</time>
      </trkpt>
      <trkpt lat="45.19964" lon="5.99">
        <ele>2264.32</ele>
        <time>2019-08-09T12:07:53.000Z</time>
      </trkpt>
      <trkpt lat="45.19964" lon="5.99013">
        <ele>2268.3</ele>
        <time>2019-08-09T12:08:38.000Z</time>
      </trkpt>
      <trkpt lat="45.19965" lon="5.99026">
        <ele>2272.84</ele>
        <time>2019-08-09T12:09:00.000Z</time>
      </trkpt>
      <trkpt lat="45.19972" lon="5.99035">
        <ele>2274.04</ele>
        <time>2019-08-09T12:09:18.000Z</time>
      </trkpt>
      <trkpt lat="45.19981" lon="5.99041">
        <ele>2271.76</ele>
        <time>2019-08-09T12:10:04.000Z</time>
      </trkpt>
      <trkpt lat="45.19983" lon="5.99053">
        <ele>2273.58</ele>
        <time>2019-08-09T12:10:35.000Z</time>
      </trkpt>
      <trkpt lat="45.19982" lon="5.99066">
        <ele>2276.73</ele>
        <time>2019-08-09T12:11:52.000Z</time>
      </trkpt>
      <trkpt lat="45.19982" lon="5.99079">
        <ele>2276.99</ele>
        <time>2019-08-09T12:12:52.000Z</time>
      </trkpt>
      <trkpt lat="45.19988" lon="5.99089">
        <ele>2271.7</ele>
        <time>2019-08-09T12:14:21.000Z</time>
      </trkpt>
      <trkpt lat="45.1998" lon="5.99096">
        <ele>2276.63</ele>
        <time>2019-08-09T12:27:21.000Z</time>
      </trkpt>
      <trkpt lat="45.19972" lon="5.99089">
        <ele>2283.42</ele>
        <time>2019-08-09T12:31:10.000Z</time>
      </trkpt>
      <trkpt lat="45.19962" lon="5.99087">
        <ele>2289.17</ele>
        <time>2019-08-09T12:31:54.000Z</time>
      </trkpt>
      <trkpt lat="45.19954" lon="5.99082">
        <ele>2293.5</ele>
        <time>2019-08-09T12:32:11.000Z</time>
      </trkpt>
      <trkpt lat="45.19946" lon="5.99075">
        <ele>2296.13</ele>
        <time>2019-08-09T12:32:37.000Z</time>
      </trkpt>
      <trkpt lat="45.19938" lon="5.99069">
        <ele>2298.42</ele>
        <time>2019-08-09T12:32:54.000Z</time>
      </trkpt>
      <trkpt lat="45.1993" lon="5.99061">
        <ele>2299.01</ele>
        <time>2019-08-09T12:33:25.000Z</time>
      </trkpt>
      <trkpt lat="45.19921" lon="5.99064">
        <ele>2304.91</ele>
        <time>2019-08-09T12:33:51.000Z</time>
      </trkpt>
      <trkpt lat="45.19919" lon="5.99077">
        <ele>2309.77</ele>
        <time>2019-08-09T12:34:43.000Z</time>
      </trkpt>
      <trkpt lat="45.19926" lon="5.99085">
        <ele>2307.05</ele>
        <time>2019-08-09T12:34:55.000Z</time>
      </trkpt>
      <trkpt lat="45.19931" lon="5.99097">
        <ele>2303.55</ele>
        <time>2019-08-09T12:35:22.000Z</time>
      </trkpt>
      <trkpt lat="45.19937" lon="5.99107">
        <ele>2298.02</ele>
        <time>2019-08-09T12:35:35.000Z</time>
      </trkpt>
      <trkpt lat="45.19929" lon="5.99111">
        <ele>2302.02</ele>
        <time>2019-08-09T12:37:04.000Z</time>
      </trkpt>
      <trkpt lat="45.19922" lon="5.99102">
        <ele>2307.93</ele>
        <time>2019-08-09T12:37:23.000Z</time>
      </trkpt>
      <trkpt lat="45.19913" lon="5.99096">
        <ele>2314.32</ele>
        <time>2019-08-09T12:37:43.000Z</time>
      </trkpt>
      <trkpt lat="45.19906" lon="5.99087">
        <ele>2319.39</ele>
        <time>2019-08-09T12:38:03.000Z</time>
      </trkpt>
      <trkpt lat="45.19897" lon="5.99081">
        <ele>2324.31</ele>
        <time>2019-08-09T12:38:28.000Z</time>
      </trkpt>
      <trkpt lat="45.19891" lon="5.99072">
        <ele>2326.43</ele>
        <time>2019-08-09T12:38:47.000Z</time>
      </trkpt>
      <trkpt lat="45.19886" lon="5.9906">
        <ele>2325.49</ele>
        <time>2019-08-09T12:39:43.000Z</time>
      </trkpt>
      <trkpt lat="45.19879" lon="5.99052">
        <ele>2327.54</ele>
        <time>2019-08-09T12:40:09.000Z</time>
      </trkpt>
      <trkpt lat="45.19873" lon="5.99042">
        <ele>2328.2</ele>
        <time>2019-08-09T12:40:28.000Z</time>
      </trkpt>
      <trkpt lat="45.19869" lon="5.9903">
        <ele>2327.33</ele>
        <time>2019-08-09T12:40:46.000Z</time>
      </trkpt>
      <trkpt lat="45.19863" lon="5.99018">
        <ele>2329.46</ele>
        <time>2019-08-09T12:41:12.000Z</time>
      </trkpt>
      <trkpt lat="45.19862" lon="5.99005">
        <ele>2329.07</ele>
        <time>2019-08-09T12:41:35.000Z</time>
      </trkpt>
      <trkpt lat="45.19854" lon="5.98997">
        <ele>2336.82</ele>
        <time>2019-08-09T12:42:42.000Z</time>
      </trkpt>
      <trkpt lat="45.19846" lon="5.98989">
        <ele>2345.24</ele>
        <time>2019-08-09T12:43:55.000Z</time>
      </trkpt>
      <trkpt lat="45.19845" lon="5.98976">
        <ele>2349.39</ele>
        <time>2019-08-09T12:45:20.000Z</time>
      </trkpt>
      <trkpt lat="45.19854" lon="5.98971">
        <ele>2341.27</ele>
        <time>2019-08-09T12:45:49.000Z</time>
      </trkpt>
      <trkpt lat="45.19847" lon="5.98963">
        <ele>2352.1</ele>
        <time>2019-08-09T12:47:24.000Z</time>
      </trkpt>
      <trkpt lat="45.19838" lon="5.98961">
        <ele>2361.83</ele>
        <time>2019-08-09T12:47:45.000Z</time>
      </trkpt>
      <trkpt lat="45.19829" lon="5.98956">
        <ele>2370.61</ele>
        <time>2019-08-09T12:48:33.000Z</time>
      </trkpt>
      <trkpt lat="45.19819" lon="5.98958">
        <ele>2376.04</ele>
        <time>2019-08-09T12:49:53.000Z</time>
      </trkpt>
      <trkpt lat="45.19811" lon="5.98965">
        <ele>2377.14</ele>
        <time>2019-08-09T12:50:53.000Z</time>
      </trkpt>
      <trkpt lat="45.19801" lon="5.98962">
        <ele>2382.21</ele>
        <time>2019-08-09T12:51:46.000Z</time>
      </trkpt>
      <trkpt lat="45.19794" lon="5.98954">
        <ele>2387.16</ele>
        <time>2019-08-09T12:52:35.000Z</time>
      </trkpt>
      <trkpt lat="45.19786" lon="5.98949">
        <ele>2390.8</ele>
        <time>2019-08-09T12:53:15.000Z</time>
      </trkpt>
      <trkpt lat="45.19777" lon="5.9895">
        <ele>2392.68</ele>
        <time>2019-08-09T12:53:50.000Z</time>
      </trkpt>
      <trkpt lat="45.19768" lon="5.98945">
        <ele>2396.18</ele>
        <time>2019-08-09T12:54:10.000Z</time>
      </trkpt>
      <trkpt lat="45.19761" lon="5.98937">
        <ele>2399.63</ele>
        <time>2019-08-09T12:54:36.000Z</time>
      </trkpt>
      <trkpt lat="45.19752" lon="5.98938">
        <ele>2402.77</ele>
        <time>2019-08-09T12:56:16.000Z</time>
      </trkpt>
      <trkpt lat="45.19752" lon="5.98923">
        <ele>2404.42</ele>
        <time>2019-08-09T12:57:30.000Z</time>
      </trkpt>
      <trkpt lat="45.19752" lon="5.98909">
        <ele>2405.87</ele>
        <time>2019-08-09T12:57:52.000Z</time>
      </trkpt>
      <trkpt lat="45.19747" lon="5.98898">
        <ele>2408.65</ele>
        <time>2019-08-09T12:58:12.000Z</time>
      </trkpt>
      <trkpt lat="45.19745" lon="5.98886">
        <ele>2410.09</ele>
        <time>2019-08-09T12:58:30.000Z</time>
      </trkpt>
      <trkpt lat="45.19747" lon="5.98873">
        <ele>2409.85</ele>
        <time>2019-08-09T12:58:45.000Z</time>
      </trkpt>
      <trkpt lat="45.19746" lon="5.98859">
        <ele>2411.24</ele>
        <time>2019-08-09T12:58:56.000Z</time>
      </trkpt>
      <trkpt lat="45.19743" lon="5.98847">
        <ele>2412.76</ele>
        <time>2019-08-09T12:59:11.000Z</time>
      </trkpt>
      <trkpt lat="45.19738" lon="5.98836">
        <ele>2414.95</ele>
        <time>2019-08-09T12:59:26.000Z</time>
      </trkpt>
      <trkpt lat="45.19737" lon="5.98822">
        <ele>2416.27</ele>
        <time>2019-08-09T12:59:43.000Z</time>
      </trkpt>
      <trkpt lat="45.19731" lon="5.9881">
        <ele>2417.61</ele>
        <time>2019-08-09T12:59:54.000Z</time>
      </trkpt>
      <trkpt lat="45.19727" lon="5.98799">
        <ele>2417.91</ele>
        <time>2019-08-09T13:00:07.000Z</time>
      </trkpt>
      <trkpt lat="45.1972" lon="5.9879">
        <ele>2416.7</ele>
        <time>2019-08-09T13:00:26.000Z</time>
      </trkpt>
      <trkpt lat="45.19723" lon="5.98802">
        <ele>2417.36</ele>
        <time>2019-08-09T13:04:35.000Z</time>
      </trkpt>
      <trkpt lat="45.19719" lon="5.98791">
        <ele>2416.41</ele>
        <time>2019-08-09T13:20:13.000Z</time>
      </trkpt>
      <trkpt lat="45.19712" lon="5.98783">
        <ele>2413.32</ele>
        <time>2019-08-09T13:20:36.000Z</time>
      </trkpt>
      <trkpt lat="45.19702" lon="5.98782">
        <ele>2408.85</ele>
        <time>2019-08-09T13:21:19.000Z</time>
      </trkpt>
      <trkpt lat="45.19693" lon="5.98783">
        <ele>2404.7</ele>
        <time>2019-08-09T13:21:54.000Z</time>
      </trkpt>
      <trkpt lat="45.19689" lon="5.98772">
        <ele>2399.75</ele>
        <time>2019-08-09T13:22:21.000Z</time>
      </trkpt>
      <trkpt lat="45.1968" lon="5.98775">
        <ele>2395.64</ele>
        <time>2019-08-09T13:23:09.000Z</time>
      </trkpt>
      <trkpt lat="45.19671" lon="5.98772">
        <ele>2390.04</ele>
        <time>2019-08-09T13:23:39.000Z</time>
      </trkpt>
      <trkpt lat="45.19662" lon="5.98771">
        <ele>2385.29</ele>
        <time>2019-08-09T13:24:00.000Z</time>
      </trkpt>
      <trkpt lat="45.19653" lon="5.98774">
        <ele>2381.31</ele>
        <time>2019-08-09T13:24:33.000Z</time>
      </trkpt>
      <trkpt lat="45.19643" lon="5.98773">
        <ele>2375.91</ele>
        <time>2019-08-09T13:24:58.000Z</time>
      </trkpt>
      <trkpt lat="45.19638" lon="5.98762">
        <ele>2368.89</ele>
        <time>2019-08-09T13:25:50.000Z</time>
      </trkpt>
      <trkpt lat="45.19636" lon="5.98749">
        <ele>2363.97</ele>
        <time>2019-08-09T13:26:16.000Z</time>
      </trkpt>
      <trkpt lat="45.19627" lon="5.98745">
        <ele>2357.51</ele>
        <time>2019-08-09T13:26:37.000Z</time>
      </trkpt>
      <trkpt lat="45.19617" lon="5.98745">
        <ele>2352.3</ele>
        <time>2019-08-09T13:27:06.000Z</time>
      </trkpt>
      <trkpt lat="45.19609" lon="5.9874">
        <ele>2346.72</ele>
        <time>2019-08-09T13:27:31.000Z</time>
      </trkpt>
      <trkpt lat="45.19609" lon="5.98726">
        <ele>2344.82</ele>
        <time>2019-08-09T13:28:03.000Z</time>
      </trkpt>
      <trkpt lat="45.19608" lon="5.98713">
        <ele>2343.44</ele>
        <time>2019-08-09T13:28:23.000Z</time>
      </trkpt>
      <trkpt lat="45.19608" lon="5.987">
        <ele>2342.87</ele>
        <time>2019-08-09T13:28:36.000Z</time>
      </trkpt>
      <trkpt lat="45.19606" lon="5.98686">
        <ele>2341.91</ele>
        <time>2019-08-09T13:28:46.000Z</time>
      </trkpt>
      <trkpt lat="45.19603" lon="5.98674">
        <ele>2339.72</ele>
        <time>2019-08-09T13:28:56.000Z</time>
      </trkpt>
      <trkpt lat="45.19598" lon="5.98662">
        <ele>2337.32</ele>
        <time>2019-08-09T13:29:06.000Z</time>
      </trkpt>
      <trkpt lat="45.19593" lon="5.98651">
        <ele>2334.9</ele>
        <time>2019-08-09T13:29:18.000Z</time>
      </trkpt>
      <trkpt lat="45.19586" lon="5.9864">
        <ele>2331.49</ele>
        <time>2019-08-09T13:29:28.000Z</time>
      </trkpt>
      <trkpt lat="45.1958" lon="5.9863">
        <ele>2329.1</ele>
        <time>2019-08-09T13:29:40.000Z</time>
      </trkpt>
      <trkpt lat="45.19577" lon="5.98618">
        <ele>2327.71</ele>
        <time>2019-08-09T13:29:55.000Z</time>
      </trkpt>
      <trkpt lat="45.19573" lon="5.98606">
        <ele>2325.94</ele>
        <time>2019-08-09T13:30:15.000Z</time>
      </trkpt>
      <trkpt lat="45.19569" lon="5.98592">
        <ele>2322.62</ele>
        <time>2019-08-09T13:30:31.000Z</time>
      </trkpt>
      <trkpt lat="45.19565" lon="5.9858">
        <ele>2319</ele>
        <time>2019-08-09T13:31:03.000Z</time>
      </trkpt>
      <trkpt lat="45.19561" lon="5.98567">
        <ele>2313.36</ele>
        <time>2019-08-09T13:31:25.000Z</time>
      </trkpt>
      <trkpt lat="45.19561" lon="5.98554">
        <ele>2309.61</ele>
        <time>2019-08-09T13:31:36.000Z</time>
      </trkpt>
      <trkpt lat="45.19562" lon="5.98541">
        <ele>2306.21</ele>
        <time>2019-08-09T13:31:48.000Z</time>
      </trkpt>
      <trkpt lat="45.19564" lon="5.98527">
        <ele>2302.12</ele>
        <time>2019-08-09T13:32:25.000Z</time>
      </trkpt>
      <trkpt lat="45.19568" lon="5.98516">
        <ele>2300.48</ele>
        <time>2019-08-09T13:32:48.000Z</time>
      </trkpt>
      <trkpt lat="45.19571" lon="5.98503">
        <ele>2296.84</ele>
        <time>2019-08-09T13:33:11.000Z</time>
      </trkpt>
      <trkpt lat="45.19575" lon="5.98491">
        <ele>2294.34</ele>
        <time>2019-08-09T13:33:37.000Z</time>
      </trkpt>
      <trkpt lat="45.1958" lon="5.9848">
        <ele>2291.14</ele>
        <time>2019-08-09T13:33:51.000Z</time>
      </trkpt>
      <trkpt lat="45.19574" lon="5.98469">
        <ele>2283.47</ele>
        <time>2019-08-09T13:34:18.000Z</time>
      </trkpt>
      <trkpt lat="45.19566" lon="5.98463">
        <ele>2276.7</ele>
        <time>2019-08-09T13:34:50.000Z</time>
      </trkpt>
      <trkpt lat="45.19558" lon="5.98453">
        <ele>2268.98</ele>
        <time>2019-08-09T13:35:35.000Z</time>
      </trkpt>
      <trkpt lat="45.19549" lon="5.98448">
        <ele>2263.51</ele>
        <time>2019-08-09T13:36:20.000Z</time>
      </trkpt>
      <trkpt lat="45.1954" lon="5.98447">
        <ele>2259.97</ele>
        <time>2019-08-09T13:37:05.000Z</time>
      </trkpt>
      <trkpt lat="45.19541" lon="5.98432">
        <ele>2255.07</ele>
        <time>2019-08-09T13:38:06.000Z</time>
      </trkpt>
      <trkpt lat="45.19541" lon="5.98418">
        <ele>2250.7</ele>
        <time>2019-08-09T13:38:46.000Z</time>
      </trkpt>
      <trkpt lat="45.19542" lon="5.98406">
        <ele>2247.34</ele>
        <time>2019-08-09T13:39:02.000Z</time>
      </trkpt>
      <trkpt lat="45.19543" lon="5.98391">
        <ele>2243.78</ele>
        <time>2019-08-09T13:39:20.000Z</time>
      </trkpt>
      <trkpt lat="45.19541" lon="5.98378">
        <ele>2240.54</ele>
        <time>2019-08-09T13:39:42.000Z</time>
      </trkpt>
      <trkpt lat="45.19543" lon="5.98365">
        <ele>2238.06</ele>
        <time>2019-08-09T13:39:57.000Z</time>
      </trkpt>
      <trkpt lat="45.19547" lon="5.98352">
        <ele>2235.72</ele>
        <time>2019-08-09T13:40:22.000Z</time>
      </trkpt>
      <trkpt lat="45.19549" lon="5.98339">
        <ele>2233.35</ele>
        <time>2019-08-09T13:41:04.000Z</time>
      </trkpt>
      <trkpt lat="45.19558" lon="5.98334">
        <ele>2233.95</ele>
        <time>2019-08-09T13:41:36.000Z</time>
      </trkpt>
      <trkpt lat="45.19566" lon="5.98324">
        <ele>2233.32</ele>
        <time>2019-08-09T13:41:53.000Z</time>
      </trkpt>
      <trkpt lat="45.19571" lon="5.98311">
        <ele>2231.89</ele>
        <time>2019-08-09T13:42:12.000Z</time>
      </trkpt>
      <trkpt lat="45.19577" lon="5.98302">
        <ele>2232.1</ele>
        <time>2019-08-09T13:42:28.000Z</time>
      </trkpt>
      <trkpt lat="45.1958" lon="5.98289">
        <ele>2230.77</ele>
        <time>2019-08-09T13:42:45.000Z</time>
      </trkpt>
      <trkpt lat="45.19578" lon="5.98276">
        <ele>2227.95</ele>
        <time>2019-08-09T13:43:02.000Z</time>
      </trkpt>
      <trkpt lat="45.19576" lon="5.98263">
        <ele>2225.33</ele>
        <time>2019-08-09T13:43:22.000Z</time>
      </trkpt>
      <trkpt lat="45.19575" lon="5.9825">
        <ele>2222.54</ele>
        <time>2019-08-09T13:43:40.000Z</time>
      </trkpt>
      <trkpt lat="45.19575" lon="5.98236">
        <ele>2219.68</ele>
        <time>2019-08-09T13:43:57.000Z</time>
      </trkpt>
      <trkpt lat="45.19576" lon="5.98223">
        <ele>2217.62</ele>
        <time>2019-08-09T13:44:08.000Z</time>
      </trkpt>
      <trkpt lat="45.19577" lon="5.9821">
        <ele>2215.25</ele>
        <time>2019-08-09T13:44:22.000Z</time>
      </trkpt>
      <trkpt lat="45.19579" lon="5.98197">
        <ele>2213.2</ele>
        <time>2019-08-09T13:44:41.000Z</time>
      </trkpt>
      <trkpt lat="45.19582" lon="5.98183">
        <ele>2211.14</ele>
        <time>2019-08-09T13:45:01.000Z</time>
      </trkpt>
      <trkpt lat="45.19583" lon="5.9817">
        <ele>2208.79</ele>
        <time>2019-08-09T13:45:26.000Z</time>
      </trkpt>
      <trkpt lat="45.19588" lon="5.98157">
        <ele>2207.07</ele>
        <time>2019-08-09T13:45:41.000Z</time>
      </trkpt>
      <trkpt lat="45.1959" lon="5.98145">
        <ele>2204.49</ele>
        <time>2019-08-09T13:45:55.000Z</time>
      </trkpt>
      <trkpt lat="45.19594" lon="5.98132">
        <ele>2202.38</ele>
        <time>2019-08-09T13:46:12.000Z</time>
      </trkpt>
      <trkpt lat="45.19595" lon="5.98119">
        <ele>2198.9</ele>
        <time>2019-08-09T13:46:25.000Z</time>
      </trkpt>
      <trkpt lat="45.19596" lon="5.98106">
        <ele>2195.9</ele>
        <time>2019-08-09T13:46:44.000Z</time>
      </trkpt>
      <trkpt lat="45.19596" lon="5.98092">
        <ele>2192.71</ele>
        <time>2019-08-09T13:47:00.000Z</time>
      </trkpt>
      <trkpt lat="45.19597" lon="5.98078">
        <ele>2190.47</ele>
        <time>2019-08-09T13:47:10.000Z</time>
      </trkpt>
      <trkpt lat="45.19599" lon="5.98065">
        <ele>2189.67</ele>
        <time>2019-08-09T13:47:22.000Z</time>
      </trkpt>
      <trkpt lat="45.19597" lon="5.98051">
        <ele>2187.92</ele>
        <time>2019-08-09T13:47:33.000Z</time>
      </trkpt>
      <trkpt lat="45.19594" lon="5.98038">
        <ele>2185.89</ele>
        <time>2019-08-09T13:47:51.000Z</time>
      </trkpt>
      <trkpt lat="45.19585" lon="5.98028">
        <ele>2182.26</ele>
        <time>2019-08-09T13:48:10.000Z</time>
      </trkpt>
      <trkpt lat="45.19584" lon="5.98015">
        <ele>2180.57</ele>
        <time>2019-08-09T13:48:23.000Z</time>
      </trkpt>
      <trkpt lat="45.19579" lon="5.98004">
        <ele>2177.33</ele>
        <time>2019-08-09T13:48:41.000Z</time>
      </trkpt>
      <trkpt lat="45.19574" lon="5.97991">
        <ele>2172.93</ele>
        <time>2019-08-09T13:49:08.000Z</time>
      </trkpt>
      <trkpt lat="45.19568" lon="5.9798">
        <ele>2168.37</ele>
        <time>2019-08-09T13:49:33.000Z</time>
      </trkpt>
      <trkpt lat="45.19562" lon="5.9797">
        <ele>2164.28</ele>
        <time>2019-08-09T13:49:48.000Z</time>
      </trkpt>
      <trkpt lat="45.19552" lon="5.97969">
        <ele>2162.54</ele>
        <time>2019-08-09T13:50:10.000Z</time>
      </trkpt>
      <trkpt lat="45.19544" lon="5.97964">
        <ele>2160.21</ele>
        <time>2019-08-09T13:50:40.000Z</time>
      </trkpt>
      <trkpt lat="45.19535" lon="5.97966">
        <ele>2159.85</ele>
        <time>2019-08-09T13:50:52.000Z</time>
      </trkpt>
      <trkpt lat="45.19526" lon="5.97959">
        <ele>2157.88</ele>
        <time>2019-08-09T13:51:07.000Z</time>
      </trkpt>
      <trkpt lat="45.1952" lon="5.97948">
        <ele>2155.65</ele>
        <time>2019-08-09T13:51:23.000Z</time>
      </trkpt>
      <trkpt lat="45.19513" lon="5.97938">
        <ele>2154.01</ele>
        <time>2019-08-09T13:51:44.000Z</time>
      </trkpt>
      <trkpt lat="45.1951" lon="5.97926">
        <ele>2152.16</ele>
        <time>2019-08-09T13:52:03.000Z</time>
      </trkpt>
      <trkpt lat="45.19506" lon="5.97914">
        <ele>2150.58</ele>
        <time>2019-08-09T13:52:13.000Z</time>
      </trkpt>
      <trkpt lat="45.19499" lon="5.97903">
        <ele>2149.13</ele>
        <time>2019-08-09T13:52:23.000Z</time>
      </trkpt>
      <trkpt lat="45.1949" lon="5.97897">
        <ele>2147.88</ele>
        <time>2019-08-09T13:52:51.000Z</time>
      </trkpt>
      <trkpt lat="45.19486" lon="5.97884">
        <ele>2145.83</ele>
        <time>2019-08-09T13:53:16.000Z</time>
      </trkpt>
      <trkpt lat="45.19481" lon="5.97873">
        <ele>2143.94</ele>
        <time>2019-08-09T13:53:41.000Z</time>
      </trkpt>
      <trkpt lat="45.19483" lon="5.9786">
        <ele>2142.41</ele>
        <time>2019-08-09T13:53:58.000Z</time>
      </trkpt>
      <trkpt lat="45.19481" lon="5.97847">
        <ele>2140.9</ele>
        <time>2019-08-09T13:54:20.000Z</time>
      </trkpt>
      <trkpt lat="45.1948" lon="5.97833">
        <ele>2139.75</ele>
        <time>2019-08-09T13:54:30.000Z</time>
      </trkpt>
      <trkpt lat="45.19477" lon="5.97819">
        <ele>2139.06</ele>
        <time>2019-08-09T13:54:40.000Z</time>
      </trkpt>
      <trkpt lat="45.19473" lon="5.97808">
        <ele>2138.67</ele>
        <time>2019-08-09T13:54:50.000Z</time>
      </trkpt>
      <trkpt lat="45.19471" lon="5.97795">
        <ele>2138.54</ele>
        <time>2019-08-09T13:55:00.000Z</time>
      </trkpt>
      <trkpt lat="45.19472" lon="5.97782">
        <ele>2138.77</ele>
        <time>2019-08-09T13:55:10.000Z</time>
      </trkpt>
      <trkpt lat="45.1947" lon="5.97768">
        <ele>2138.81</ele>
        <time>2019-08-09T13:55:20.000Z</time>
      </trkpt>
      <trkpt lat="45.1947" lon="5.97754">
        <ele>2138.82</ele>
        <time>2019-08-09T13:55:34.000Z</time>
      </trkpt>
      <trkpt lat="45.19474" lon="5.97742">
        <ele>2139.02</ele>
        <time>2019-08-09T13:55:46.000Z</time>
      </trkpt>
      <trkpt lat="45.19476" lon="5.97729">
        <ele>2138.95</ele>
        <time>2019-08-09T13:55:58.000Z</time>
      </trkpt>
      <trkpt lat="45.19478" lon="5.97716">
        <ele>2138.77</ele>
        <time>2019-08-09T13:56:15.000Z</time>
      </trkpt>
      <trkpt lat="45.19479" lon="5.97703">
        <ele>2138.36</ele>
        <time>2019-08-09T13:56:25.000Z</time>
      </trkpt>
      <trkpt lat="45.1948" lon="5.97689">
        <ele>2137.7</ele>
        <time>2019-08-09T13:56:42.000Z</time>
      </trkpt>
      <trkpt lat="45.19478" lon="5.97677">
        <ele>2137.17</ele>
        <time>2019-08-09T13:56:57.000Z</time>
      </trkpt>
      <trkpt lat="45.19471" lon="5.97667">
        <ele>2136.91</ele>
        <time>2019-08-09T13:57:07.000Z</time>
      </trkpt>
      <trkpt lat="45.19465" lon="5.97656">
        <ele>2136.22</ele>
        <time>2019-08-09T13:57:18.000Z</time>
      </trkpt>
      <trkpt lat="45.19463" lon="5.97643">
        <ele>2134.24</ele>
        <time>2019-08-09T13:59:47.000Z</time>
      </trkpt>
      <trkpt lat="45.19467" lon="5.97632">
        <ele>2132.02</ele>
        <time>2019-08-09T14:00:05.000Z</time>
      </trkpt>
      <trkpt lat="45.19466" lon="5.97618">
        <ele>2129.42</ele>
        <time>2019-08-09T14:00:26.000Z</time>
      </trkpt>
      <trkpt lat="45.19464" lon="5.97605">
        <ele>2126.93</ele>
        <time>2019-08-09T14:00:45.000Z</time>
      </trkpt>
      <trkpt lat="45.19464" lon="5.97591">
        <ele>2125.04</ele>
        <time>2019-08-09T14:00:55.000Z</time>
      </trkpt>
      <trkpt lat="45.19454" lon="5.97586">
        <ele>2122.9</ele>
        <time>2019-08-09T14:01:05.000Z</time>
      </trkpt>
      <trkpt lat="45.19445" lon="5.97583">
        <ele>2121.23</ele>
        <time>2019-08-09T14:01:21.000Z</time>
      </trkpt>
      <trkpt lat="45.19435" lon="5.97582">
        <ele>2119.68</ele>
        <time>2019-08-09T14:01:40.000Z</time>
      </trkpt>
      <trkpt lat="45.19426" lon="5.97577">
        <ele>2117.92</ele>
        <time>2019-08-09T14:02:07.000Z</time>
      </trkpt>
      <trkpt lat="45.19417" lon="5.97572">
        <ele>2116.29</ele>
        <time>2019-08-09T14:02:30.000Z</time>
      </trkpt>
      <trkpt lat="45.19411" lon="5.97563">
        <ele>2115.17</ele>
        <time>2019-08-09T14:02:44.000Z</time>
      </trkpt>
      <trkpt lat="45.19403" lon="5.97556">
        <ele>2113.57</ele>
        <time>2019-08-09T14:02:58.000Z</time>
      </trkpt>
      <trkpt lat="45.19393" lon="5.97552">
        <ele>2111.07</ele>
        <time>2019-08-09T14:03:16.000Z</time>
      </trkpt>
      <trkpt lat="45.19385" lon="5.97547">
        <ele>2108.35</ele>
        <time>2019-08-09T14:03:33.000Z</time>
      </trkpt>
      <trkpt lat="45.19377" lon="5.97538">
        <ele>2105.32</ele>
        <time>2019-08-09T14:03:59.000Z</time>
      </trkpt>
      <trkpt lat="45.19369" lon="5.9753">
        <ele>2101.52</ele>
        <time>2019-08-09T14:04:34.000Z</time>
      </trkpt>
      <trkpt lat="45.19361" lon="5.9752">
        <ele>2097.08</ele>
        <time>2019-08-09T14:05:01.000Z</time>
      </trkpt>
      <trkpt lat="45.19354" lon="5.97511">
        <ele>2093.16</ele>
        <time>2019-08-09T14:05:25.000Z</time>
      </trkpt>
      <trkpt lat="45.19345" lon="5.97506">
        <ele>2089.29</ele>
        <time>2019-08-09T14:05:55.000Z</time>
      </trkpt>
      <trkpt lat="45.19341" lon="5.97495">
        <ele>2086.52</ele>
        <time>2019-08-09T14:06:29.000Z</time>
      </trkpt>
      <trkpt lat="45.19344" lon="5.97482">
        <ele>2086.96</ele>
        <time>2019-08-09T14:06:45.000Z</time>
      </trkpt>
      <trkpt lat="45.19342" lon="5.97469">
        <ele>2086.2</ele>
        <time>2019-08-09T14:06:58.000Z</time>
      </trkpt>
      <trkpt lat="45.19339" lon="5.97455">
        <ele>2085.57</ele>
        <time>2019-08-09T14:07:24.000Z</time>
      </trkpt>
      <trkpt lat="45.19334" lon="5.97444">
        <ele>2084.43</ele>
        <time>2019-08-09T14:07:44.000Z</time>
      </trkpt>
      <trkpt lat="45.19326" lon="5.97436">
        <ele>2082.37</ele>
        <time>2019-08-09T14:07:58.000Z</time>
      </trkpt>
      <trkpt lat="45.19318" lon="5.97429">
        <ele>2080.51</ele>
        <time>2019-08-09T14:08:13.000Z</time>
      </trkpt>
      <trkpt lat="45.19311" lon="5.97421">
        <ele>2079.14</ele>
        <time>2019-08-09T14:08:23.000Z</time>
      </trkpt>
      <trkpt lat="45.19302" lon="5.97414">
        <ele>2077.53</ele>
        <time>2019-08-09T14:08:33.000Z</time>
      </trkpt>
      <trkpt lat="45.1929" lon="5.97411">
        <ele>2075.32</ele>
        <time>2019-08-09T14:08:43.000Z</time>
      </trkpt>
      <trkpt lat="45.19281" lon="5.97404">
        <ele>2074.24</ele>
        <time>2019-08-09T14:08:55.000Z</time>
      </trkpt>
      <trkpt lat="45.19274" lon="5.97394">
        <ele>2073.85</ele>
        <time>2019-08-09T14:09:05.000Z</time>
      </trkpt>
      <trkpt lat="45.19266" lon="5.97389">
        <ele>2072.85</ele>
        <time>2019-08-09T14:09:18.000Z</time>
      </trkpt>
      <trkpt lat="45.19258" lon="5.97382">
        <ele>2072.11</ele>
        <time>2019-08-09T14:09:40.000Z</time>
      </trkpt>
      <trkpt lat="45.1925" lon="5.97374">
        <ele>2071.55</ele>
        <time>2019-08-09T14:09:57.000Z</time>
      </trkpt>
      <trkpt lat="45.19243" lon="5.97364">
        <ele>2071.08</ele>
        <time>2019-08-09T14:10:09.000Z</time>
      </trkpt>
      <trkpt lat="45.19236" lon="5.97355">
        <ele>2070.49</ele>
        <time>2019-08-09T14:10:20.000Z</time>
      </trkpt>
      <trkpt lat="45.19228" lon="5.97348">
        <ele>2069.18</ele>
        <time>2019-08-09T14:10:31.000Z</time>
      </trkpt>
      <trkpt lat="45.19224" lon="5.97336">
        <ele>2068.44</ele>
        <time>2019-08-09T14:10:49.000Z</time>
      </trkpt>
      <trkpt lat="45.1922" lon="5.97324">
        <ele>2067.49</ele>
        <time>2019-08-09T14:11:03.000Z</time>
      </trkpt>
      <trkpt lat="45.19221" lon="5.97311">
        <ele>2067.87</ele>
        <time>2019-08-09T14:11:14.000Z</time>
      </trkpt>
      <trkpt lat="45.19216" lon="5.97299">
        <ele>2066.51</ele>
        <time>2019-08-09T14:11:29.000Z</time>
      </trkpt>
      <trkpt lat="45.1921" lon="5.97289">
        <ele>2064.53</ele>
        <time>2019-08-09T14:11:43.000Z</time>
      </trkpt>
      <trkpt lat="45.19206" lon="5.97276">
        <ele>2063.1</ele>
        <time>2019-08-09T14:11:54.000Z</time>
      </trkpt>
      <trkpt lat="45.192" lon="5.97266">
        <ele>2060.58</ele>
        <time>2019-08-09T14:12:06.000Z</time>
      </trkpt>
      <trkpt lat="45.19192" lon="5.97258">
        <ele>2057.77</ele>
        <time>2019-08-09T14:12:18.000Z</time>
      </trkpt>
      <trkpt lat="45.19184" lon="5.97252">
        <ele>2055.04</ele>
        <time>2019-08-09T14:12:28.000Z</time>
      </trkpt>
      <trkpt lat="45.19177" lon="5.97243">
        <ele>2052.53</ele>
        <time>2019-08-09T14:12:40.000Z</time>
      </trkpt>
      <trkpt lat="45.19171" lon="5.97233">
        <ele>2050.24</ele>
        <time>2019-08-09T14:12:55.000Z</time>
      </trkpt>
      <trkpt lat="45.19167" lon="5.9722">
        <ele>2048.11</ele>
        <time>2019-08-09T14:13:18.000Z</time>
      </trkpt>
      <trkpt lat="45.19164" lon="5.97208">
        <ele>2046.24</ele>
        <time>2019-08-09T14:13:38.000Z</time>
      </trkpt>
      <trkpt lat="45.19161" lon="5.97195">
        <ele>2044.3</ele>
        <time>2019-08-09T14:13:53.000Z</time>
      </trkpt>
      <trkpt lat="45.19157" lon="5.97183">
        <ele>2042.28</ele>
        <time>2019-08-09T14:14:06.000Z</time>
      </trkpt>
      <trkpt lat="45.19155" lon="5.9717">
        <ele>2040.35</ele>
        <time>2019-08-09T14:14:20.000Z</time>
      </trkpt>
      <trkpt lat="45.19153" lon="5.97158">
        <ele>2038.64</ele>
        <time>2019-08-09T14:14:33.000Z</time>
      </trkpt>
      <trkpt lat="45.19154" lon="5.97144">
        <ele>2037.27</ele>
        <time>2019-08-09T14:14:50.000Z</time>
      </trkpt>
      <trkpt lat="45.1915" lon="5.97132">
        <ele>2035.42</ele>
        <time>2019-08-09T14:15:08.000Z</time>
      </trkpt>
      <trkpt lat="45.19146" lon="5.97117">
        <ele>2033.28</ele>
        <time>2019-08-09T14:15:32.000Z</time>
      </trkpt>
      <trkpt lat="45.19147" lon="5.97103">
        <ele>2031.46</ele>
        <time>2019-08-09T14:15:44.000Z</time>
      </trkpt>
      <trkpt lat="45.19143" lon="5.97092">
        <ele>2029.12</ele>
        <time>2019-08-09T14:15:57.000Z</time>
      </trkpt>
      <trkpt lat="45.19142" lon="5.97078">
        <ele>2026.35</ele>
        <time>2019-08-09T14:16:09.000Z</time>
      </trkpt>
      <trkpt lat="45.19143" lon="5.97065">
        <ele>2023.73</ele>
        <time>2019-08-09T14:16:20.000Z</time>
      </trkpt>
      <trkpt lat="45.19147" lon="5.97053">
        <ele>2021.63</ele>
        <time>2019-08-09T14:16:43.000Z</time>
      </trkpt>
      <trkpt lat="45.19155" lon="5.97045">
        <ele>2020.63</ele>
        <time>2019-08-09T14:17:01.000Z</time>
      </trkpt>
      <trkpt lat="45.1916" lon="5.97034">
        <ele>2018.55</ele>
        <time>2019-08-09T14:17:11.000Z</time>
      </trkpt>
      <trkpt lat="45.19168" lon="5.97029">
        <ele>2017.8</ele>
        <time>2019-08-09T14:17:22.000Z</time>
      </trkpt>
      <trkpt lat="45.19178" lon="5.97029">
        <ele>2017.88</ele>
        <time>2019-08-09T14:17:46.000Z</time>
      </trkpt>
      <trkpt lat="45.19187" lon="5.97029">
        <ele>2017.57</ele>
        <time>2019-08-09T14:17:56.000Z</time>
      </trkpt>
      <trkpt lat="45.19197" lon="5.97028">
        <ele>2016.57</ele>
        <time>2019-08-09T14:18:08.000Z</time>
      </trkpt>
      <trkpt lat="45.19206" lon="5.9703">
        <ele>2016.33</ele>
        <time>2019-08-09T14:18:18.000Z</time>
      </trkpt>
      <trkpt lat="45.19215" lon="5.97023">
        <ele>2013.78</ele>
        <time>2019-08-09T14:18:28.000Z</time>
      </trkpt>
      <trkpt lat="45.19221" lon="5.97011">
        <ele>2010.23</ele>
        <time>2019-08-09T14:18:38.000Z</time>
      </trkpt>
      <trkpt lat="45.19211" lon="5.9701">
        <ele>2010.54</ele>
        <time>2019-08-09T14:18:49.000Z</time>
      </trkpt>
      <trkpt lat="45.19203" lon="5.97003">
        <ele>2009.31</ele>
        <time>2019-08-09T14:18:59.000Z</time>
      </trkpt>
      <trkpt lat="45.19194" lon="5.96998">
        <ele>2008.54</ele>
        <time>2019-08-09T14:19:09.000Z</time>
      </trkpt>
      <trkpt lat="45.19187" lon="5.96989">
        <ele>2005.87</ele>
        <time>2019-08-09T14:19:19.000Z</time>
      </trkpt>
      <trkpt lat="45.1918" lon="5.96981">
        <ele>2002.84</ele>
        <time>2019-08-09T14:19:30.000Z</time>
      </trkpt>
      <trkpt lat="45.19171" lon="5.96973">
        <ele>1999.51</ele>
        <time>2019-08-09T14:19:42.000Z</time>
      </trkpt>
      <trkpt lat="45.19162" lon="5.9697">
        <ele>1997.07</ele>
        <time>2019-08-09T14:19:53.000Z</time>
      </trkpt>
      <trkpt lat="45.19153" lon="5.9697">
        <ele>1995.7</ele>
        <time>2019-08-09T14:20:04.000Z</time>
      </trkpt>
      <trkpt lat="45.19144" lon="5.96969">
        <ele>1993.29</ele>
        <time>2019-08-09T14:20:15.000Z</time>
      </trkpt>
      <trkpt lat="45.19134" lon="5.96967">
        <ele>1989.85</ele>
        <time>2019-08-09T14:20:28.000Z</time>
      </trkpt>
      <trkpt lat="45.19126" lon="5.96963">
        <ele>1985.9</ele>
        <time>2019-08-09T14:20:41.000Z</time>
      </trkpt>
      <trkpt lat="45.19117" lon="5.96967">
        <ele>1985.39</ele>
        <time>2019-08-09T14:20:51.000Z</time>
      </trkpt>
      <trkpt lat="45.19112" lon="5.96978">
        <ele>1988.92</ele>
        <time>2019-08-09T14:21:02.000Z</time>
      </trkpt>
      <trkpt lat="45.19106" lon="5.96989">
        <ele>1992.46</ele>
        <time>2019-08-09T14:21:12.000Z</time>
      </trkpt>
      <trkpt lat="45.19104" lon="5.96976">
        <ele>1986.67</ele>
        <time>2019-08-09T14:21:39.000Z</time>
      </trkpt>
      <trkpt lat="45.19108" lon="5.96963">
        <ele>1981.63</ele>
        <time>2019-08-09T14:21:52.000Z</time>
      </trkpt>
      <trkpt lat="45.19114" lon="5.96952">
        <ele>1978.17</ele>
        <time>2019-08-09T14:22:02.000Z</time>
      </trkpt>
      <trkpt lat="45.19119" lon="5.96942">
        <ele>1974.43</ele>
        <time>2019-08-09T14:22:13.000Z</time>
      </trkpt>
      <trkpt lat="45.1911" lon="5.9694">
        <ele>1971.54</ele>
        <time>2019-08-09T14:22:46.000Z</time>
      </trkpt>
      <trkpt lat="45.19101" lon="5.96943">
        <ele>1971.02</ele>
        <time>2019-08-09T14:22:56.000Z</time>
      </trkpt>
      <trkpt lat="45.19109" lon="5.96935">
        <ele>1968.81</ele>
        <time>2019-08-09T14:23:23.000Z</time>
      </trkpt>
      <trkpt lat="45.19116" lon="5.96926">
        <ele>1966.1</ele>
        <time>2019-08-09T14:23:33.000Z</time>
      </trkpt>
      <trkpt lat="45.19107" lon="5.96921">
        <ele>1961.47</ele>
        <time>2019-08-09T14:24:04.000Z</time>
      </trkpt>
      <trkpt lat="45.19098" lon="5.96923">
        <ele>1960.93</ele>
        <time>2019-08-09T14:24:15.000Z</time>
      </trkpt>
      <trkpt lat="45.19089" lon="5.96926">
        <ele>1961.03</ele>
        <time>2019-08-09T14:24:27.000Z</time>
      </trkpt>
      <trkpt lat="45.19097" lon="5.96918">
        <ele>1958.4</ele>
        <time>2019-08-09T14:24:55.000Z</time>
      </trkpt>
      <trkpt lat="45.19103" lon="5.96909">
        <ele>1955.23</ele>
        <time>2019-08-09T14:25:08.000Z</time>
      </trkpt>
      <trkpt lat="45.19111" lon="5.96902">
        <ele>1953.5</ele>
        <time>2019-08-09T14:25:19.000Z</time>
      </trkpt>
      <trkpt lat="45.19119" lon="5.96893">
        <ele>1950.54</ele>
        <time>2019-08-09T14:25:30.000Z</time>
      </trkpt>
      <trkpt lat="45.19127" lon="5.96885">
        <ele>1948.67</ele>
        <time>2019-08-09T14:25:40.000Z</time>
      </trkpt>
      <trkpt lat="45.19137" lon="5.96879">
        <ele>1947.74</ele>
        <time>2019-08-09T14:25:54.000Z</time>
      </trkpt>
      <trkpt lat="45.19146" lon="5.96875">
        <ele>1947.78</ele>
        <time>2019-08-09T14:26:05.000Z</time>
      </trkpt>
      <trkpt lat="45.19155" lon="5.96869">
        <ele>1946.59</ele>
        <time>2019-08-09T14:26:16.000Z</time>
      </trkpt>
      <trkpt lat="45.19163" lon="5.96862">
        <ele>1944.41</ele>
        <time>2019-08-09T14:26:27.000Z</time>
      </trkpt>
      <trkpt lat="45.19171" lon="5.96856">
        <ele>1943.58</ele>
        <time>2019-08-09T14:26:39.000Z</time>
      </trkpt>
      <trkpt lat="45.1918" lon="5.96853">
        <ele>1944.13</ele>
        <time>2019-08-09T14:26:49.000Z</time>
      </trkpt>
      <trkpt lat="45.1919" lon="5.96852">
        <ele>1946.46</ele>
        <time>2019-08-09T14:27:00.000Z</time>
      </trkpt>
      <trkpt lat="45.19199" lon="5.96851">
        <ele>1948.54</ele>
        <time>2019-08-09T14:27:10.000Z</time>
      </trkpt>
      <trkpt lat="45.19209" lon="5.96849">
        <ele>1950.93</ele>
        <time>2019-08-09T14:27:22.000Z</time>
      </trkpt>
      <trkpt lat="45.19217" lon="5.96841">
        <ele>1949.87</ele>
        <time>2019-08-09T14:27:35.000Z</time>
      </trkpt>
      <trkpt lat="45.19225" lon="5.96837">
        <ele>1951.21</ele>
        <time>2019-08-09T14:28:48.000Z</time>
      </trkpt>
      <trkpt lat="45.19232" lon="5.96826">
        <ele>1950.01</ele>
        <time>2019-08-09T14:29:00.000Z</time>
      </trkpt>
      <trkpt lat="45.19234" lon="5.96813">
        <ele>1948.48</ele>
        <time>2019-08-09T14:29:10.000Z</time>
      </trkpt>
      <trkpt lat="45.19234" lon="5.96799">
        <ele>1946.4</ele>
        <time>2019-08-09T14:29:25.000Z</time>
      </trkpt>
      <trkpt lat="45.19232" lon="5.96786">
        <ele>1943.7</ele>
        <time>2019-08-09T14:29:35.000Z</time>
      </trkpt>
      <trkpt lat="45.19233" lon="5.96773">
        <ele>1942.49</ele>
        <time>2019-08-09T14:29:47.000Z</time>
      </trkpt>
      <trkpt lat="45.19234" lon="5.9676">
        <ele>1940.02</ele>
        <time>2019-08-09T14:35:21.000Z</time>
      </trkpt>
      <trkpt lat="45.19239" lon="5.96749">
        <ele>1939.54</ele>
        <time>2019-08-09T14:35:35.000Z</time>
      </trkpt>
      <trkpt lat="45.19241" lon="5.96736">
        <ele>1934.48</ele>
        <time>2019-08-09T14:36:00.000Z</time>
      </trkpt>
      <trkpt lat="45.19248" lon="5.96728">
        <ele>1933.79</ele>
        <time>2019-08-09T14:36:24.000Z</time>
      </trkpt>
      <trkpt lat="45.19254" lon="5.96739">
        <ele>1941.67</ele>
        <time>2019-08-09T14:40:00.000Z</time>
      </trkpt>
      <trkpt lat="45.19245" lon="5.96735">
        <ele>1936.41</ele>
        <time>2019-08-09T14:40:57.000Z</time>
      </trkpt>
      <trkpt lat="45.1924" lon="5.96724">
        <ele>1928.16</ele>
        <time>2019-08-09T14:41:07.000Z</time>
      </trkpt>
      <trkpt lat="45.19246" lon="5.96734">
        <ele>1936.64</ele>
        <time>2019-08-09T14:41:21.000Z</time>
      </trkpt>
      <trkpt lat="45.19245" lon="5.96748">
        <ele>1942.18</ele>
        <time>2019-08-09T14:43:25.000Z</time>
      </trkpt>
      <trkpt lat="45.19241" lon="5.96733">
        <ele>1933.82</ele>
        <time>2019-08-09T14:44:07.000Z</time>
      </trkpt>
      <trkpt lat="45.1924" lon="5.96719">
        <ele>1925.37</ele>
        <time>2019-08-09T14:44:22.000Z</time>
      </trkpt>
      <trkpt lat="45.19246" lon="5.9673">
        <ele>1934.5</ele>
        <time>2019-08-09T14:44:32.000Z</time>
      </trkpt>
      <trkpt lat="45.19252" lon="5.96743">
        <ele>1942.48</ele>
        <time>2019-08-09T14:44:51.000Z</time>
      </trkpt>
      <trkpt lat="45.19246" lon="5.96731">
        <ele>1934.91</ele>
        <time>2019-08-09T14:45:24.000Z</time>
      </trkpt>
      <trkpt lat="45.19247" lon="5.96718">
        <ele>1928.01</ele>
        <time>2019-08-09T14:46:58.000Z</time>
      </trkpt>
      <trkpt lat="45.19248" lon="5.96731">
        <ele>1935.41</ele>
        <time>2019-08-09T14:48:02.000Z</time>
      </trkpt>
      <trkpt lat="45.19237" lon="5.96734">
        <ele>1931.96</ele>
        <time>2019-08-09T14:49:35.000Z</time>
      </trkpt>
      <trkpt lat="45.19245" lon="5.96726">
        <ele>1931.56</ele>
        <time>2019-08-09T14:49:46.000Z</time>
      </trkpt>
      <trkpt lat="45.19245" lon="5.96739">
        <ele>1938.27</ele>
        <time>2019-08-09T14:54:07.000Z</time>
      </trkpt>
      <trkpt lat="45.19252" lon="5.96749">
        <ele>1945.34</ele>
        <time>2019-08-09T14:56:56.000Z</time>
      </trkpt>
      <trkpt lat="45.19249" lon="5.96736">
        <ele>1938.85</ele>
        <time>2019-08-09T14:57:24.000Z</time>
      </trkpt>
      <trkpt lat="45.19247" lon="5.96732">
        <ele>1935.67</ele>
        <time>2019-08-09T14:59:22.000Z</time>
      </trkpt>
    </trkseg>
  </trk>
</gpx>